SondeTracker

Meteorological Radiosondes Database

Operations

Sounding was ended - last measurement: 2022-12-06 11:14:23z

MAP
About Radiosonde

Number: U2750217

Launch Site: Eskmeals (GB)

Type: RS41

AUX: NO

Frequency: 405.10 MHz

Max Speed: 69 km/h at 10634 m

Average Speed: 31.21 km/h

Max Altitude: 21690 m

Average Ascent Speed: 4.11 m/s

Average Descent Speed: 7.22 m/s

Status: LOST

Status Changes
Launch Site Type AUX Frequency Status Finder Landing Point Description Changes made by
MHz LOST 0, 0 AUTO STATUS: Probably lost in the water [BOT]AUTO-STATUS - 2022-12-06 12:24:52z
APRS Statistics

Received Frames: 590

First Frame [UTC]: 2022-12-06 09:14:36z

Last Frame [UTC]: 2022-12-06 11:14:23z

Receivers: F5RZC-11, F5RZC-14, G3HRZ, G4VFL-14, M0NRD

Flight Time: 01:59:47 h

Distance From First Measurement: 60.51 km

Nearest City: Blackpool (GB) [9.68 km]

Nearest Hunter: G3WBB [15.05 km]

Ground Altitude: -123 m

Distance from QTH: 0.00 km

APRS Data
Receiver Number Date/Time [UTC] φ λ Course [°] Speed [km/h] Altitude [m] Description
G3HRZU27502172022-12-06 11:14:2353.787-3.19029135306895Clb=-8.5m/s t=-35.5C h=45.3% p=-1.0hPa 405.101 MHz Type=RS41-SG ser=U2750217 Radiosonde
G3HRZU27502172022-12-06 11:13:2153.7906-3.19724127317320Clb=-6.9m/s t=-38.7C h=68.0% p=-1.0hPa 405.101 MHz Type=RS41-SG ser=U2750217 Radiosonde
G3HRZU27502172022-12-06 11:12:5953.7919-3.20057126287512Clb=-7.9m/s t=-40.0C h=66.0% p=-1.0hPa 405.101 MHz Type=RS41-SG ser=U2750217 Radiosonde
G3HRZU27502172022-12-06 11:12:2053.7927-3.20262126247662Clb=-6.9m/s t=-41.4C h=65.5% p=-1.0hPa 405.101 MHz Type=RS41-SG ser=U2750217 Radiosonde
G3HRZU27502172022-12-06 11:11:4853.7942-3.2054139337843Clb=-9.6m/s t=-42.8C h=64.5% p=-1.0hPa 405.101 MHz Type=RS41-SG ser=U2750217 Radiosonde
G3HRZU27502172022-12-06 11:11:1753.7964-3.20835139358044Clb=-6.9m/s t=-44.1C h=61.3% p=-1.0hPa 405.101 MHz Type=RS41-SG ser=U2750217 Radiosonde
G3HRZU27502172022-12-06 11:10:4653.7982-3.21147128308254Clb=-6.4m/s t=-45.3C h=60.4% p=-1.0hPa 405.101 MHz Type=RS41-SG ser=U2750217 Radiosonde
G3HRZU27502172022-12-06 11:10:1553.7997-3.21492121338454Clb=-6.7m/s t=-46.2C h=43.6% p=-1.0hPa 405.101 MHz Type=RS41-SG ser=U2750217 Radiosonde
G3HRZU27502172022-12-06 11:09:4453.801-3.21872126398656Clb=-6.7m/s t=-47.4C h=37.6% p=-1.0hPa 405.101 MHz Type=RS41-SG ser=U2750217 Radiosonde
G3HRZU27502172022-12-06 11:09:1253.803-3.22254137438863Clb=-7.0m/s t=-48.8C h=25.6% p=-1.0hPa 405.101 MHz Type=RS41-SG ser=U2750217 Radiosonde
G3HRZU27502172022-12-06 11:08:4253.8055-3.22595145399060Clb=-3.2m/s t=-49.4C h=16.2% p=-1.0hPa 405.101 MHz Type=RS41-SG ser=U2750217 Radiosonde
G3HRZU27502172022-12-06 11:08:1153.8078-3.22891142359227Clb=-3.6m/s t=-50.6C h=17.1% p=-1.0hPa 405.101 MHz Type=RS41-SG ser=U2750217 Radiosonde
G3HRZU27502172022-12-06 11:07:3953.8101-3.23152146399364Clb=-3.8m/s t=-51.9C h=18.6% p=-1.0hPa 405.101 MHz Type=RS41-SG ser=U2750217 Radiosonde
G3HRZU27502172022-12-06 11:07:0853.8122-3.23394146309552Clb=-6.7m/s t=-53.0C h=18.0% p=-1.0hPa 405.101 MHz Type=RS41-SG ser=U2750217 Radiosonde
G3HRZU27502172022-12-06 11:06:3753.8144-3.23607142319759Clb=-5.5m/s t=-54.3C h=17.1% p=-1.0hPa 405.101 MHz Type=RS41-SG ser=U2750217 Radiosonde
G3HRZU27502172022-12-06 11:06:0653.8166-3.23888154359953Clb=-7.7m/s t=-55.4C h=15.2% p=-1.0hPa 405.101 MHz Type=RS41-SG ser=U2750217 Radiosonde
G3HRZU27502172022-12-06 11:05:3553.8194-3.24111583910165Clb=-3.7m/s t=-54.2C h=12.9% p=-1.0hPa 405.101 MHz Type=RS41-SG ser=U2750217 Radiosonde
G3HRZU27502172022-12-06 11:05:0453.8226-3.243241604610320Clb=-7.7m/s t=-55.2C h=13.6% p=-1.0hPa 405.101 MHz Type=RS41-SG ser=U2750217 Radiosonde
G3HRZU27502172022-12-06 11:04:3353.8262-3.245421645210435Clb=-3.6m/s t=-56.1C h=15.2% p=-1.0hPa 405.101 MHz Type=RS41-SG ser=U2750217 Radiosonde
G3HRZU27502172022-12-06 11:04:0253.8304-3.247431675710560Clb=-3.4m/s t=-56.9C h=14.7% p=-1.0hPa 405.101 MHz Type=RS41-SG ser=U2750217 Radiosonde
G3HRZU27502172022-12-06 11:03:3153.8353-3.248321785710707Clb=-4.3m/s t=-56.9C h=13.2% p=-1.0hPa 405.101 MHz Type=RS41-SG ser=U2750217 Radiosonde
G3HRZU27502172022-12-06 11:03:0053.8393-3.24722023710853Clb=-5.0m/s t=-56.8C h=12.7% p=-1.0hPa 405.101 MHz Type=RS41-SG ser=U2750217 Radiosonde
M0NRDU27502172022-12-06 11:02:3953.8411-3.246671943310962Clb=-5.7m/s t=-273.0C h=-1.0% p=-1.0hPa 405.101 MHz Type=RS41 Radiosonde
G3HRZU27502172022-12-06 11:02:2953.8416-3.246351642011010Clb=-4.7m/s t=-57.3C h=11.9% p=-1.0hPa 405.101 MHz Type=RS41-SG ser=U2750217 Radiosonde
M0NRDU27502172022-12-06 11:02:0853.8426-3.24623150711134Clb=-6.8m/s t=-273.0C h=-1.0% p=-1.0hPa 405.101 MHz Type=RS41 Radiosonde
G3HRZU27502172022-12-06 11:01:5853.8428-3.246441361111185Clb=-4.3m/s t=-58.3C h=10.6% p=-1.0hPa 405.101 MHz Type=RS41-SG ser=U2750217 Radiosonde
M0NRDU27502172022-12-06 11:01:3653.8438-3.247591472011347Clb=-5.6m/s t=-273.0C h=-1.0% p=-1.0hPa 405.101 MHz Type=RS41 Radiosonde
G3HRZU27502172022-12-06 11:01:2753.8441-3.247861432611375Clb=-7.7m/s t=-58.4C h=7.7% p=-1.0hPa 405.101 MHz Type=RS41-SG ser=U2750217 Radiosonde
G3HRZU27502172022-12-06 11:00:5653.8461-3.250841423111532Clb=-6.4m/s t=-57.1C h=5.2% p=-1.0hPa 405.101 MHz Type=RS41-SG ser=U2750217 Radiosonde
G3HRZU27502172022-12-06 11:00:2553.8489-3.254351493511692Clb=-4.6m/s t=-55.7C h=3.7% p=-1.0hPa 405.101 MHz Type=RS41-SG ser=U2750217 Radiosonde
G3HRZU27502172022-12-06 10:59:5453.8513-3.25691483511837Clb=-5.6m/s t=-55.1C h=3.2% p=-1.0hPa 405.101 MHz Type=RS41-SG ser=U2750217 Radiosonde
G3HRZU27502172022-12-06 10:59:2253.8539-3.258671763512008Clb=-4.2m/s t=-56.4C h=3.1% p=-1.0hPa 405.101 MHz Type=RS41-SG ser=U2750217 Radiosonde
G3HRZU27502172022-12-06 10:58:5153.8571-3.259061844412207Clb=-7.7m/s t=-55.9C h=2.4% p=-1.0hPa 405.101 MHz Type=RS41-SG ser=U2750217 Radiosonde
G3HRZU27502172022-12-06 10:58:2053.86-3.258471802812400Clb=-4.8m/s t=-55.9C h=2.3% p=-1.0hPa 405.101 MHz Type=RS41-SG ser=U2750217 Radiosonde
G3HRZU27502172022-12-06 10:57:4953.8622-3.25951523112566Clb=-5.8m/s t=-55.0C h=2.1% p=-1.0hPa 405.101 MHz Type=RS41-SG ser=U2750217 Radiosonde
G3HRZU27502172022-12-06 10:57:1853.8648-3.261041574112763Clb=-7.1m/s t=-55.7C h=2.1% p=-1.0hPa 405.101 MHz Type=RS41-SG ser=U2750217 Radiosonde
G3HRZU27502172022-12-06 10:56:4753.8674-3.262621583112954Clb=-4.8m/s t=-56.2C h=2.0% p=-1.0hPa 405.101 MHz Type=RS41-SG ser=U2750217 Radiosonde
G3HRZU27502172022-12-06 10:56:1653.8702-3.263821574413131Clb=-5.1m/s t=-56.2C h=1.8% p=-1.0hPa 405.101 MHz Type=RS41-SG ser=U2750217 Radiosonde
G3HRZU27502172022-12-06 10:55:4553.8732-3.264931673013322Clb=-6.5m/s t=-56.1C h=1.8% p=-1.0hPa 405.101 MHz Type=RS41-SG ser=U2750217 Radiosonde
G3HRZU27502172022-12-06 10:55:1453.8751-3.266421502813583Clb=-6.7m/s t=-55.4C h=1.5% p=-1.0hPa 405.101 MHz Type=RS41-SG ser=U2750217 Radiosonde
F5RZC-11U27502172022-12-06 10:54:4853.8771-3.268291493713761Clb=-11.0m/s t=-56.4C h=1.6% p=-1.0hPa 405.100 MHz Type=RS41-SG ser=U2750217 Radiosonde
G3HRZU27502172022-12-06 10:54:4353.8774-3.26861533913790Clb=-7.3m/s t=-56.2C h=1.6% p=-1.0hPa 405.101 MHz Type=RS41-SG ser=U2750217 Radiosonde
F5RZC-11U27502172022-12-06 10:54:1753.8797-3.26961712413966Clb=-6.1m/s t=-56.4C h=1.6% p=-1.0hPa 405.100 MHz Type=RS41-SG ser=U2750217 Radiosonde
G3HRZU27502172022-12-06 10:54:1253.8798-3.269631702013983Clb=-6.5m/s t=-56.5C h=1.6% p=-1.0hPa 405.101 MHz Type=RS41-SG ser=U2750217 Radiosonde
F5RZC-14U27502172022-12-06 10:53:5553.8806-3.269861681514111Clb=-7.3m/s t=-56.1C h=4.4% 405.10MHz Type=RS41-SG Details on http://radiosondy.info
F5RZC-11U27502172022-12-06 10:53:4553.881-3.270051531314187Clb=-8.2m/s t=-55.9C h=1.6% p=-1.0hPa 405.100 MHz Type=RS41-SG ser=U2750217 Radiosonde
G3HRZU27502172022-12-06 10:53:4153.8811-3.27014159914216Clb=-7.4m/s t=-56.0C h=1.6% p=-1.0hPa 405.101 MHz Type=RS41-SG ser=U2750217 Radiosonde
F5RZC-14U27502172022-12-06 10:53:4053.8811-3.270161631114224Clb=-7.3m/s t=-56.0C h=4.3% 405.10MHz Type=RS41-SG Details on http://radiosondy.info
F5RZC-14U27502172022-12-06 10:53:2553.8815-3.27027126714330Clb=-7.2m/s t=-56.0C h=4.3% 405.10MHz Type=RS41-SG batt=2.5V Details on http://radiosondy.info
F5RZC-11U27502172022-12-06 10:53:1453.8816-3.27043156914407Clb=-6.8m/s t=-55.8C h=1.6% p=-1.0hPa 405.100 MHz Type=RS41-SG ser=U2750217 Radiosonde
G3HRZU27502172022-12-06 10:53:1053.8818-3.270561452014432Clb=-6.1m/s t=-55.7C h=1.6% p=-1.0hPa 405.101 MHz Type=RS41-SG ser=U2750217 Radiosonde
F5RZC-11U27502172022-12-06 10:52:4353.8825-3.272081402414604Clb=-7.5m/s t=-55.9C h=1.6% p=-1.0hPa 405.100 MHz Type=RS41-SG ser=U2750217 Radiosonde
G3HRZU27502172022-12-06 10:52:3953.8827-3.272421322014634Clb=-5.3m/s t=-56.0C h=1.7% p=-1.0hPa 405.101 MHz Type=RS41-SG ser=U2750217 Radiosonde
F5RZC-11U27502172022-12-06 10:52:1253.8839-3.274211542814832Clb=-7.0m/s t=-56.4C h=1.6% p=-1.0hPa 405.100 MHz Type=RS41-SG ser=U2750217 Radiosonde
G3HRZU27502172022-12-06 10:52:0853.8842-3.274341722614863Clb=-6.9m/s t=-56.5C h=1.6% p=-1.0hPa 405.101 MHz Type=RS41-SG ser=U2750217 Radiosonde
F5RZC-11U27502172022-12-06 10:51:4153.8857-3.274681751915052Clb=-7.6m/s t=-55.9C h=1.6% p=-1.0hPa 405.100 MHz Type=RS41-SG ser=U2750217 Radiosonde
G3HRZU27502172022-12-06 10:51:3753.886-3.274721641315098Clb=-9.3m/s t=-55.7C h=1.6% p=-1.0hPa 405.101 MHz Type=RS41-SG ser=U2750217 Radiosonde
G4VFL-14U27502172022-12-06 10:51:3253.886-3.274771532015123Clb=-10.8m/s t=-55.6C h=4.3% 405.10MHz Type=RS41-SG Details on http://radiosondy.info
G4VFL-14U27502172022-12-06 10:51:1653.8866-3.275681022015268Clb=-9.6m/s t=-55.2C h=4.2% 405.10MHz Type=RS41-SG TxOff=8h19m batt=2.5V Details on http://radiosondy.info
F5RZC-11U27502172022-12-06 10:51:1053.8867-3.276051361915317Clb=-9.9m/s t=-55.0C h=1.5% p=-1.0hPa 405.100 MHz Type=RS41-SG ser=U2750217 Radiosonde
G3HRZU27502172022-12-06 10:51:0653.887-3.276391312615360Clb=-9.4m/s t=-55.3C h=1.4% p=-1.0hPa 405.101 MHz Type=RS41-SG ser=U2750217 Radiosonde
G4VFL-14U27502172022-12-06 10:51:0153.8871-3.276731181115397Clb=-9.0m/s t=-55.5C h=4.2% 405.10MHz Type=RS41-SG Details on http://radiosondy.info
F5RZC-14U27502172022-12-06 10:50:5453.8872-3.277107915454Clb=-6.7m/s t=-55.8C h=4.3% 405.10MHz Type=RS41-SG Details on http://radiosondy.info
G4VFL-14U27502172022-12-06 10:50:4553.8873-3.27733112915519Clb=-8.7m/s t=-55.5C h=4.1% 405.10MHz Type=RS41-SG Details on http://radiosondy.info
F5RZC-11U27502172022-12-06 10:50:3953.8872-3.2774513715571Clb=-7.6m/s t=-56.0C h=1.5% p=-1.0hPa 405.100 MHz Type=RS41-SG ser=U2750217 Radiosonde
G3HRZU27502172022-12-06 10:50:3553.8871-3.2775686915611Clb=-8.4m/s t=-56.3C h=1.5% p=-1.0hPa 405.101 MHz Type=RS41-SG ser=U2750217 Radiosonde
G4VFL-14U27502172022-12-06 10:50:2953.8872-3.27785941315652Clb=-8.6m/s t=-56.2C h=4.3% 405.10MHz Type=RS41-SG batt=2.5V Details on http://radiosondy.info
F5RZC-14U27502172022-12-06 10:50:2453.8871-3.27816701515690Clb=-7.4m/s t=-56.4C h=4.5% 405.10MHz Type=RS41-SG Details on http://radiosondy.info
G4VFL-14U27502172022-12-06 10:50:1353.8873-3.278511431915768Clb=-8.1m/s t=-56.8C h=4.5% 405.10MHz Type=RS41-SG Details on http://radiosondy.info
F5RZC-14U27502172022-12-06 10:50:0953.8875-3.278761342815797Clb=-6.3m/s t=-56.7C h=4.6% 405.10MHz Type=RS41-SG Details on http://radiosondy.info
F5RZC-11U27502172022-12-06 10:50:0853.8876-3.278831511115810Clb=-8.8m/s t=-56.7C h=1.6% p=-1.0hPa 405.100 MHz Type=RS41-SG ser=U2750217 Radiosonde
G3HRZU27502172022-12-06 10:50:0453.8877-3.278911681515840Clb=-8.1m/s t=-56.6C h=1.6% p=-1.0hPa 405.101 MHz Type=RS41-SG ser=U2750217 Radiosonde
G4VFL-14U27502172022-12-06 10:49:5853.8879-3.279091343015879Clb=-7.7m/s t=-56.4C h=4.5% 405.10MHz Type=RS41-SG Details on http://radiosondy.info
F5RZC-11U27502172022-12-06 10:49:3753.889-3.280581222216050Clb=-7.1m/s t=-55.5C h=1.4% p=-1.0hPa 405.100 MHz Type=RS41-SG ser=U2750217 Radiosonde
G3HRZU27502172022-12-06 10:49:3253.8892-3.2811312216084Clb=-7.5m/s t=-55.5C h=1.4% p=-1.0hPa 405.101 MHz Type=RS41-SG ser=U2750217 Radiosonde
F5RZC-11U27502172022-12-06 10:49:0653.8901-3.282171502016269Clb=-6.3m/s t=-56.2C h=1.5% p=-1.0hPa 405.100 MHz Type=RS41-SG ser=U2750217 Radiosonde
G3HRZU27502172022-12-06 10:49:0153.8904-3.282441482616307Clb=-6.0m/s t=-56.3C h=1.4% p=-1.0hPa 405.101 MHz Type=RS41-SG ser=U2750217 Radiosonde
G4VFL-14U27502172022-12-06 10:48:4753.8911-3.282911713016406Clb=-7.7m/s t=-57.0C h=4.6% 405.10MHz Type=RS41-SG batt=2.6V Details on http://radiosondy.info
F5RZC-11U27502172022-12-06 10:48:3553.8921-3.283041732616509Clb=-10.9m/s t=-57.1C h=1.5% p=-1.0hPa 405.100 MHz Type=RS41-SG ser=U2750217 Radiosonde
G4VFL-14U27502172022-12-06 10:48:3153.8923-3.283081792816538Clb=-8.3m/s t=-56.9C h=4.5% 405.10MHz Type=RS41-SG Details on http://radiosondy.info
G3HRZU27502172022-12-06 10:48:3053.8924-3.283081833116546Clb=-8.7m/s t=-57.0C h=1.6% p=-1.0hPa 405.101 MHz Type=RS41-SG ser=U2750217 Radiosonde
G4VFL-14U27502172022-12-06 10:48:1653.8933-3.283281852816666Clb=-8.5m/s t=-57.2C h=4.5% 405.10MHz Type=RS41-SG Details on http://radiosondy.info
F5RZC-11U27502172022-12-06 10:48:0453.8942-3.283161903116784Clb=-9.2m/s t=-57.9C h=1.5% p=-1.0hPa 405.100 MHz Type=RS41-SG ser=U2750217 Radiosonde
G4VFL-14U27502172022-12-06 10:48:0053.8944-3.283052003516810Clb=-9.1m/s t=-58.0C h=4.6% 405.10MHz Type=RS41-SG TxOff=8h22m batt=2.5V Details on http://radiosondy.info
G3HRZU27502172022-12-06 10:47:5953.8945-3.2832013316819Clb=-9.0m/s t=-58.1C h=1.6% p=-1.0hPa 405.101 MHz Type=RS41-SG ser=U2750217 Radiosonde
F5RZC-14U27502172022-12-06 10:47:5453.8949-3.28272033716865Clb=-10.2m/s t=-58.4C h=4.8% 405.10MHz Type=RS41-SG TxOff=8h22m batt=2.5V Details on http://radiosondy.info
G4VFL-14U27502172022-12-06 10:47:4453.8958-3.282332013316956Clb=-8.5m/s t=-58.8C h=5.0% 405.10MHz Type=RS41-SG Details on http://radiosondy.info
F5RZC-14U27502172022-12-06 10:47:3953.8962-3.281862222817001Clb=-9.3m/s t=-58.7C h=4.8% 405.10MHz Type=RS41-SG Details on http://radiosondy.info
F5RZC-11U27502172022-12-06 10:47:3353.8966-3.281441852417062Clb=-9.9m/s t=-58.6C h=1.6% p=-1.0hPa 405.100 MHz Type=RS41-SG ser=U2750217 Radiosonde
G4VFL-14U27502172022-12-06 10:47:2953.8968-3.281411913017090Clb=-8.8m/s t=-58.7C h=4.9% 405.10MHz Type=RS41-SG Details on http://radiosondy.info
G3HRZU27502172022-12-06 10:47:2853.8968-3.281391972217098Clb=-8.7m/s t=-58.8C h=1.6% p=-1.0hPa 405.101 MHz Type=RS41-SG ser=U2750217 Radiosonde
F5RZC-14U27502172022-12-06 10:47:2453.8971-3.281222042817134Clb=-9.5m/s t=-58.9C h=5.2% 405.10MHz Type=RS41-SG Details on http://radiosondy.info
G4VFL-14U27502172022-12-06 10:47:1453.8978-3.281121672217224Clb=-8.7m/s t=-58.3C h=4.9% 405.10MHz Type=RS41-SG batt=2.6V Details on http://radiosondy.info
F5RZC-14U27502172022-12-06 10:47:0953.898-3.281181744117270Clb=-9.6m/s t=-58.0C h=4.8% 405.10MHz Type=RS41-SG batt=2.6V Details on http://radiosondy.info
F5RZC-11U27502172022-12-06 10:47:0253.8986-3.281221772617353Clb=-9.9m/s t=-57.4C h=1.5% p=-1.0hPa 405.100 MHz Type=RS41-SG ser=U2750217 Radiosonde
G4VFL-14U27502172022-12-06 10:46:5853.8987-3.281251713117372Clb=-9.5m/s t=-57.3C h=4.5% 405.10MHz Type=RS41-SG Details on http://radiosondy.info
G3HRZU27502172022-12-06 10:46:5753.8988-3.281271642817381Clb=-9.3m/s t=-57.4C h=1.4% p=-1.0hPa 405.101 MHz Type=RS41-SG ser=U2750217 Radiosonde
F5RZC-11U27502172022-12-06 10:46:3153.9011-3.281341923717616Clb=-9.3m/s t=-58.6C h=1.5% p=-1.0hPa 405.100 MHz Type=RS41-SG ser=U2750217 Radiosonde
G3HRZU27502172022-12-06 10:46:2653.9015-3.281132023917650Clb=-10.1m/s t=-58.9C h=1.5% p=-1.0hPa 405.101 MHz Type=RS41-SG ser=U2750217 Radiosonde
F5RZC-11U27502172022-12-06 10:46:0053.903-3.27989164917893Clb=-8.4m/s t=-59.1C h=1.5% p=-1.0hPa 405.100 MHz Type=RS41-SG ser=U2750217 Radiosonde
G3HRZU27502172022-12-06 10:45:5553.9031-3.279981542017925Clb=-7.3m/s t=-59.1C h=1.6% p=-1.0hPa 405.101 MHz Type=RS41-SG ser=U2750217 Radiosonde
G4VFL-14U27502172022-12-06 10:45:4853.9036-3.280311582817977Clb=-7.8m/s t=-58.7C h=4.9% 405.10MHz Type=RS41-SG Details on http://radiosondy.info
G4VFL-14U27502172022-12-06 10:45:3253.9046-3.281111464118112Clb=-10.0m/s t=-58.6C h=4.9% 405.10MHz Type=RS41-SG batt=2.5V Details on http://radiosondy.info
F5RZC-11U27502172022-12-06 10:45:2853.9048-3.281341573118144Clb=-8.6m/s t=-58.6C h=1.6% p=-1.0hPa 405.100 MHz Type=RS41-SG ser=U2750217 Radiosonde
G3HRZU27502172022-12-06 10:45:2453.9053-3.281671534618190Clb=-11.5m/s t=-58.6C h=1.5% p=-1.0hPa 405.101 MHz Type=RS41-SG ser=U2750217 Radiosonde
G4VFL-14U27502172022-12-06 10:45:1553.9061-3.282421485218277Clb=-12.4m/s t=-57.9C h=4.5% 405.10MHz Type=RS41-SG Details on http://radiosondy.info
G4VFL-14U27502172022-12-06 10:45:0053.9079-3.283341705018427Clb=-7.9m/s t=-58.7C h=4.9% 405.10MHz Type=RS41-SG Details on http://radiosondy.info
F5RZC-11U27502172022-12-06 10:44:5753.9082-3.283491604118447Clb=-8.5m/s t=-58.8C h=1.5% p=-1.0hPa 405.100 MHz Type=RS41-SG ser=U2750217 Radiosonde
F5RZC-14U27502172022-12-06 10:44:5553.9084-3.283581704818463Clb=-8.9m/s t=-58.9C h=4.8% 405.10MHz Type=RS41-SG Details on http://radiosondy.info
G3HRZU27502172022-12-06 10:44:5353.9089-3.283521965418504Clb=-12.8m/s t=-59.1C h=1.5% p=-1.0hPa 405.101 MHz Type=RS41-SG ser=U2750217 Radiosonde
G4VFL-14U27502172022-12-06 10:44:4553.9097-3.283131935018569Clb=-12.3m/s t=-59.2C h=4.8% 405.10MHz Type=RS41-SG TxOff=8h25m batt=2.6V Details on http://radiosondy.info
F5RZC-14U27502172022-12-06 10:44:4053.9102-3.282951885218622Clb=-10.2m/s t=-59.1C h=4.7% 405.10MHz Type=RS41-SG Details on http://radiosondy.info
G4VFL-14U27502172022-12-06 10:44:3053.9115-3.282861864618727Clb=-10.9m/s t=-60.0C h=5.1% 405.10MHz Type=RS41-SG Details on http://radiosondy.info
F5RZC-11U27502172022-12-06 10:44:2753.912-3.282661994818767Clb=-11.8m/s t=-60.0C h=1.6% p=-1.0hPa 405.100 MHz Type=RS41-SG ser=U2750217 Radiosonde
F5RZC-14U27502172022-12-06 10:44:2553.9122-3.282592014318779Clb=-11.4m/s t=-60.0C h=5.0% 405.10MHz Type=RS41-SG batt=2.6V Details on http://radiosondy.info
G3HRZU27502172022-12-06 10:44:2253.9126-3.282312004318820Clb=-11.7m/s t=-60.0C h=1.6% p=-1.0hPa 405.101 MHz Type=RS41-SG ser=U2750217 Radiosonde
G4VFL-14U27502172022-12-06 10:44:1453.9133-3.282081813518893Clb=-10.5m/s t=-60.2C h=5.2% 405.10MHz Type=RS41-SG Details on http://radiosondy.info
F5RZC-14U27502172022-12-06 10:44:1053.9137-3.282121763018929Clb=-9.0m/s t=-60.1C h=5.0% 405.10MHz Type=RS41-SG Details on http://radiosondy.info
G4VFL-14U27502172022-12-06 10:43:5853.9147-3.281951913519052Clb=-8.5m/s t=-59.9C h=5.1% 405.10MHz Type=RS41-SG batt=2.6V Details on http://radiosondy.info
F5RZC-11U27502172022-12-06 10:43:5553.915-3.281861963319081Clb=-11.6m/s t=-60.2C h=1.6% p=-1.0hPa 405.100 MHz Type=RS41-SG ser=U2750217 Radiosonde
G3HRZU27502172022-12-06 10:43:5153.9154-3.28171794119128Clb=-10.2m/s t=-60.3C h=1.6% p=-1.0hPa 405.101 MHz Type=RS41-SG ser=U2750217 Radiosonde
F5RZC-11U27502172022-12-06 10:43:2453.9174-3.28141691119382Clb=-11.1m/s t=-59.8C h=1.4% p=-1.0hPa 405.100 MHz Type=RS41-SG ser=U2750217 Radiosonde
G3HRZU27502172022-12-06 10:43:2053.9176-3.281391862419424Clb=-10.6m/s t=-59.9C h=1.5% p=-1.0hPa 405.101 MHz Type=RS41-SG ser=U2750217 Radiosonde
F5RZC-11U27502172022-12-06 10:42:5353.9196-3.281021812019699Clb=-9.6m/s t=-59.7C h=1.5% p=-1.0hPa 405.100 MHz Type=RS41-SG ser=U2750217 Radiosonde
G3HRZU27502172022-12-06 10:42:4953.9198-3.281041732619734Clb=-10.4m/s t=-59.8C h=1.5% p=-1.0hPa 405.101 MHz Type=RS41-SG ser=U2750217 Radiosonde
G4VFL-14U27502172022-12-06 10:42:4653.9201-3.281071751919764Clb=-10.1m/s t=-59.8C h=5.1% 405.10MHz Type=RS41-SG Details on http://radiosondy.info
G4VFL-14U27502172022-12-06 10:42:3053.9207-3.281451701519912Clb=-9.5m/s t=-59.8C h=5.1% 405.10MHz Type=RS41-SG Details on http://radiosondy.info
F5RZC-11U27502172022-12-06 10:42:2253.921-3.281527419998Clb=-8.0m/s t=-59.6C h=1.5% p=-1.0hPa 405.100 MHz Type=RS41-SG ser=U2750217 Radiosonde
G3HRZU27502172022-12-06 10:42:1853.921-3.281631421920039Clb=-10.8m/s t=-59.8C h=1.4% p=-1.0hPa 405.101 MHz Type=RS41-SG ser=U2750217 Radiosonde
G4VFL-14U27502172022-12-06 10:42:1353.9213-3.281811672220092Clb=-11.0m/s t=-60.0C h=4.8% 405.10MHz Type=RS41-SG batt=2.6V Details on http://radiosondy.info
G4VFL-14U27502172022-12-06 10:41:5853.9221-3.282191583320241Clb=-9.8m/s t=-60.7C h=5.0% 405.10MHz Type=RS41-SG Details on http://radiosondy.info
F5RZC-14U27502172022-12-06 10:41:5553.9223-3.282311653320275Clb=-10.4m/s t=-61.0C h=5.1% 405.10MHz Type=RS41-SG Details on http://radiosondy.info
F5RZC-11U27502172022-12-06 10:41:5153.9226-3.282381802820319Clb=-14.7m/s t=-61.3C h=1.6% p=-1.0hPa 405.100 MHz Type=RS41-SG ser=U2750217 Radiosonde
G3HRZU27502172022-12-06 10:41:4753.9229-3.282341873520362Clb=-9.3m/s t=-61.4C h=1.6% p=-1.0hPa 405.101 MHz Type=RS41-SG ser=U2750217 Radiosonde
G4VFL-14U27502172022-12-06 10:41:4253.9234-3.282231883520406Clb=-9.7m/s t=-61.7C h=5.6% 405.10MHz Type=RS41-SG Details on http://radiosondy.info
F5RZC-14U27502172022-12-06 10:41:4053.9236-3.282191873520428Clb=-12.9m/s t=-61.8C h=5.7% 405.10MHz Type=RS41-SG TxPastBurst=8h30m batt=2.7V Details on http://radiosondy.info
G4VFL-14U27502172022-12-06 10:41:2753.9247-3.281961864320569Clb=-10.0m/s t=-60.8C h=5.2% 405.10MHz Type=RS41-SG TxPastBurst=8h30m batt=2.6V Details on http://radiosondy.info
F5RZC-14U27502172022-12-06 10:41:2553.9249-3.281931804620588Clb=-9.6m/s t=-60.9C h=5.2% 405.10MHz Type=RS41-SG Details on http://radiosondy.info
F5RZC-11U27502172022-12-06 10:41:2053.9254-3.281981713920637Clb=-9.7m/s t=-61.0C h=1.5% p=-1.0hPa 405.100 MHz Type=RS41-SG ser=U2750217 Radiosonde
G3HRZU27502172022-12-06 10:41:1653.9259-3.282071754320689Clb=-12.4m/s t=-61.2C h=1.6% p=-1.0hPa 405.101 MHz Type=RS41-SG ser=U2750217 Radiosonde
G4VFL-14U27502172022-12-06 10:41:1253.9263-3.28211804620722Clb=-12.3m/s t=-61.1C h=5.2% 405.10MHz Type=RS41-SG Details on http://radiosondy.info
F5RZC-14U27502172022-12-06 10:41:1053.9266-3.28211795420745Clb=-12.9m/s t=-61.1C h=5.2% 405.10MHz Type=RS41-SG Details on http://radiosondy.info
G4VFL-14U27502172022-12-06 10:40:5753.928-3.282671654620889Clb=-11.2m/s t=-61.4C h=5.4% 405.10MHz Type=RS41-SG Details on http://radiosondy.info
F5RZC-11U27502172022-12-06 10:40:4953.9288-3.28311673721015Clb=-18.5m/s t=-61.5C h=1.5% p=-1.0hPa 405.100 MHz Type=RS41-SG ser=U2750217 Radiosonde
G3HRZU27502172022-12-06 10:40:4553.9294-3.283241744821129Clb=-18.0m/s t=-62.0C h=1.6% p=-1.0hPa 405.101 MHz Type=RS41-SG ser=U2750217 Radiosonde
F5RZC-11U27502172022-12-06 10:40:1853.9328-3.28242044821598Clb=-22.2m/s t=-63.3C h=1.7% p=-1.0hPa 405.100 MHz Type=RS41-SG ser=U2750217 Radiosonde
G3HRZU27502172022-12-06 10:40:1453.9333-3.2822024421690Clb=-17.9m/s t=-63.7C h=1.7% p=-1.0hPa 405.101 MHz Type=RS41-SG ser=U2750217 Radiosonde
F5RZC-11U27502172022-12-06 10:39:4753.9359-3.280272094821678Clb=5.0m/s t=-63.5C h=1.8% p=-1.0hPa 405.100 MHz Type=RS41-SG ser=U2750217 Radiosonde
G3HRZU27502172022-12-06 10:39:4353.9366-3.27972064421651Clb=4.4m/s t=-63.5C h=1.7% p=-1.0hPa 405.101 MHz Type=RS41-SG ser=U2750217 Radiosonde
G4VFL-14U27502172022-12-06 10:39:3453.9373-3.279232035421620Clb=4.1m/s t=-63.4C h=5.9% 405.10MHz Type=RS41-SG batt=2.6V Details on http://radiosondy.info
G4VFL-14U27502172022-12-06 10:39:1853.9394-3.278241875921550Clb=3.9m/s t=-63.4C h=5.9% 405.10MHz Type=RS41-SG Details on http://radiosondy.info
F5RZC-11U27502172022-12-06 10:39:1653.9399-3.278091895721531Clb=4.9m/s t=-63.4C h=1.7% p=-1.0hPa 405.100 MHz Type=RS41-SG ser=U2750217 Radiosonde
G3HRZU27502172022-12-06 10:39:1253.9404-3.277961925621518Clb=5.0m/s t=-63.3C h=1.7% p=-1.0hPa 405.101 MHz Type=RS41-SG ser=U2750217 Radiosonde
G4VFL-14U27502172022-12-06 10:39:0253.9417-3.277591905221479Clb=4.0m/s t=-63.2C h=6.0% 405.10MHz Type=RS41-SG Details on http://radiosondy.info
F5RZC-14U27502172022-12-06 10:38:5453.9427-3.277281915221441Clb=4.9m/s t=-63.1C h=5.9% 405.10MHz Type=RS41-SG batt=2.7V Details on http://radiosondy.info
G4VFL-14U27502172022-12-06 10:38:4553.9438-3.276951915221398Clb=5.1m/s t=-62.7C h=5.7% 405.10MHz Type=RS41-SG batt=2.6V Details on http://radiosondy.info
G3HRZU27502172022-12-06 10:38:4053.9446-3.276761875421370Clb=5.4m/s t=-62.9C h=1.6% p=-1.0hPa 405.101 MHz Type=RS41-SG ser=U2750217 Radiosonde
F5RZC-14U27502172022-12-06 10:38:3953.9446-3.276751885421370Clb=5.4m/s t=-62.8C h=5.7% 405.10MHz Type=RS41-SG Details on http://radiosondy.info
G4VFL-14U27502172022-12-06 10:38:2953.9459-3.276591825621321Clb=5.5m/s t=-62.7C h=5.8% 405.10MHz Type=RS41-SG Details on http://radiosondy.info
F5RZC-14U27502172022-12-06 10:38:2453.9467-3.276541835621296Clb=5.2m/s t=-62.7C h=5.7% 405.10MHz Type=RS41-SG Details on http://radiosondy.info
G4VFL-14U27502172022-12-06 10:38:1353.9482-3.276621774621241Clb=4.3m/s t=-62.7C h=6.0% 405.10MHz Type=RS41-SG Details on http://radiosondy.info
G3HRZU27502172022-12-06 10:38:0953.9487-3.276691774421220Clb=6.1m/s t=-62.6C h=1.7% p=-1.0hPa 405.101 MHz Type=RS41-SG ser=U2750217 Radiosonde
G4VFL-14U27502172022-12-06 10:37:5753.95-3.277081704121158Clb=5.3m/s t=-62.0C h=5.6% 405.10MHz Type=RS41-SG TxPastBurst=8h30m batt=2.6V Details on http://radiosondy.info
F5RZC-11U27502172022-12-06 10:37:4353.9515-3.277631644621083Clb=6.2m/s t=-61.7C h=1.6% p=-1.0hPa 405.100 MHz Type=RS41-SG ser=U2750217 Radiosonde
G3HRZU27502172022-12-06 10:37:3853.9519-3.277841663521062Clb=4.9m/s t=-61.8C h=1.6% p=-1.0hPa 405.101 MHz Type=RS41-SG ser=U2750217 Radiosonde
F5RZC-11U27502172022-12-06 10:37:1253.9543-3.279251603320924Clb=4.2m/s t=-61.6C h=1.5% p=-1.0hPa 405.100 MHz Type=RS41-SG ser=U2750217 Radiosonde
G3HRZU27502172022-12-06 10:37:0753.9546-3.279391693520904Clb=4.5m/s t=-61.5C h=1.5% p=-1.0hPa 405.101 MHz Type=RS41-SG ser=U2750217 Radiosonde
G4VFL-14U27502172022-12-06 10:36:4953.9562-3.280271684320814Clb=5.8m/s t=-61.4C h=5.5% 405.10MHz Type=RS41-SG Details on http://radiosondy.info
F5RZC-11U27502172022-12-06 10:36:4053.9572-3.280691634420767Clb=4.7m/s t=-61.3C h=1.6% p=-1.0hPa 405.100 MHz Type=RS41-SG ser=U2750217 Radiosonde
G3HRZU27502172022-12-06 10:36:3653.9577-3.280941713920738Clb=4.0m/s t=-61.3C h=1.6% p=-1.0hPa 405.101 MHz Type=RS41-SG ser=U2750217 Radiosonde
G4VFL-14U27502172022-12-06 10:36:3453.9577-3.280941724120738Clb=3.9m/s t=-61.3C h=5.4% 405.10MHz Type=RS41-SG Details on http://radiosondy.info
G4VFL-14U27502172022-12-06 10:36:1853.9594-3.28141733720661Clb=5.4m/s t=-61.2C h=5.3% 405.10MHz Type=RS41-SG batt=2.6V Details on http://radiosondy.info
F5RZC-11U27502172022-12-06 10:36:0953.9603-3.281411913120617Clb=5.2m/s t=-61.1C h=1.5% p=-1.0hPa 405.100 MHz Type=RS41-SG ser=U2750217 Radiosonde
G3HRZU27502172022-12-06 10:36:0553.9606-3.281371833020599Clb=5.4m/s t=-61.0C h=1.5% p=-1.0hPa 405.101 MHz Type=RS41-SG ser=U2750217 Radiosonde
G4VFL-14U27502172022-12-06 10:36:0253.9608-3.281361773120585Clb=5.4m/s t=-61.1C h=5.1% 405.10MHz Type=RS41-SG Details on http://radiosondy.info
F5RZC-14U27502172022-12-06 10:35:5453.9614-3.281351853320547Clb=4.4m/s t=-61.7C h=5.3% 405.10MHz Type=RS41-SG Details on http://radiosondy.info
G4VFL-14U27502172022-12-06 10:35:4653.962-3.281291773520510Clb=4.6m/s t=-61.9C h=5.4% 405.10MHz Type=RS41-SG Details on http://radiosondy.info
F5RZC-14U27502172022-12-06 10:35:3953.9627-3.281421823120478Clb=4.3m/s t=-62.0C h=5.6% 405.10MHz Type=RS41-SG Details on http://radiosondy.info
F5RZC-11U27502172022-12-06 10:35:3853.9628-3.281421783120468Clb=4.3m/s t=-62.0C h=1.6% p=-1.0hPa 405.100 MHz Type=RS41-SG ser=U2750217 Radiosonde
G3HRZU27502172022-12-06 10:35:3453.9631-3.281411893020454Clb=4.8m/s t=-62.0C h=1.6% p=-1.0hPa 405.101 MHz Type=RS41-SG ser=U2750217 Radiosonde
G4VFL-14U27502172022-12-06 10:35:3053.9634-3.281351753120436Clb=4.6m/s t=-61.9C h=5.6% 405.10MHz Type=RS41-SG batt=2.6V Details on http://radiosondy.info
F5RZC-14U27502172022-12-06 10:35:2453.9638-3.281451683120407Clb=5.0m/s t=-61.7C h=5.5% 405.10MHz Type=RS41-SG TxPastBurst=8h30m batt=2.7V Details on http://radiosondy.info
G4VFL-14U27502172022-12-06 10:35:1453.9646-3.281621663020360Clb=5.6m/s t=-61.5C h=5.5% 405.10MHz Type=RS41-SG Details on http://radiosondy.info
F5RZC-14U27502172022-12-06 10:35:0953.965-3.281831642820335Clb=3.6m/s t=-61.3C h=5.4% 405.10MHz Type=RS41-SG Details on http://radiosondy.info
F5RZC-11U27502172022-12-06 10:35:0753.9651-3.281921613020326Clb=4.6m/s t=-61.3C h=1.6% p=-1.0hPa 405.100 MHz Type=RS41-SG ser=U2750217 Radiosonde
G3HRZU27502172022-12-06 10:35:0353.9654-3.282021702620308Clb=4.3m/s t=-61.2C h=1.5% p=-1.0hPa 405.101 MHz Type=RS41-SG ser=U2750217 Radiosonde
G4VFL-14U27502172022-12-06 10:34:5853.9657-3.282181652220285Clb=4.7m/s t=-61.1C h=5.3% 405.10MHz Type=RS41-SG Details on http://radiosondy.info
F5RZC-11U27502172022-12-06 10:34:3653.967-3.282881672020182Clb=5.5m/s t=-60.7C h=1.5% p=-1.0hPa 405.100 MHz Type=RS41-SG ser=U2750217 Radiosonde
G3HRZU27502172022-12-06 10:34:3253.9673-3.282961662420164Clb=3.9m/s t=-60.6C h=1.5% p=-1.0hPa 405.101 MHz Type=RS41-SG ser=U2750217 Radiosonde
F5RZC-11U27502172022-12-06 10:34:0553.9685-3.283381611720041Clb=4.3m/s t=-59.9C h=1.4% p=-1.0hPa 405.100 MHz Type=RS41-SG ser=U2750217 Radiosonde
G3HRZU27502172022-12-06 10:34:0153.9687-3.283561331320022Clb=5.0m/s t=-60.0C h=1.4% p=-1.0hPa 405.101 MHz Type=RS41-SG ser=U2750217 Radiosonde
G4VFL-14U27502172022-12-06 10:33:4753.9691-3.283821361719959Clb=4.3m/s t=-59.9C h=4.9% 405.10MHz Type=RS41-SG TxPastBurst=8h30m batt=2.7V Details on http://radiosondy.info
F5RZC-11U27502172022-12-06 10:33:3453.9695-3.284191502219903Clb=3.9m/s t=-60.0C h=1.5% p=-1.0hPa 405.100 MHz Type=RS41-SG ser=U2750217 Radiosonde
G4VFL-14U27502172022-12-06 10:33:3153.9696-3.284351542219889Clb=4.5m/s t=-60.0C h=5.0% 405.10MHz Type=RS41-SG Details on http://radiosondy.info
G3HRZU27502172022-12-06 10:33:3053.9697-3.284441552019880Clb=3.6m/s t=-60.2C h=1.5% p=-1.0hPa 405.101 MHz Type=RS41-SG ser=U2750217 Radiosonde
G4VFL-14U27502172022-12-06 10:33:1553.9704-3.284771672419819Clb=4.3m/s t=-60.2C h=5.1% 405.10MHz Type=RS41-SG Details on http://radiosondy.info
F5RZC-11U27502172022-12-06 10:33:0353.9711-3.284871733019769Clb=3.3m/s t=-60.0C h=1.5% p=-1.0hPa 405.100 MHz Type=RS41-SG ser=U2750217 Radiosonde
G4VFL-14U27502172022-12-06 10:32:5953.9714-3.284871852619753Clb=4.7m/s t=-60.0C h=4.9% 405.10MHz Type=RS41-SG batt=2.7V Details on http://radiosondy.info
F5RZC-14U27502172022-12-06 10:32:5453.9717-3.284891832619731Clb=4.0m/s t=-60.1C h=5.0% 405.10MHz Type=RS41-SG Details on http://radiosondy.info
G4VFL-14U27502172022-12-06 10:32:4453.9723-3.284771942819687Clb=4.8m/s t=-60.3C h=5.0% 405.10MHz Type=RS41-SG Details on http://radiosondy.info
F5RZC-14U27502172022-12-06 10:32:3953.9727-3.28471873019666Clb=5.6m/s t=-60.4C h=5.1% 405.10MHz Type=RS41-SG batt=2.6V Details on http://radiosondy.info
F5RZC-11U27502172022-12-06 10:32:3253.9732-3.284442013119629Clb=3.9m/s t=-60.4C h=1.5% p=-1.0hPa 405.100 MHz Type=RS41-SG ser=U2750217 Radiosonde
G4VFL-14U27502172022-12-06 10:32:2953.9733-3.284351983019621Clb=3.6m/s t=-60.3C h=5.1% 405.10MHz Type=RS41-SG Details on http://radiosondy.info
G3HRZU27502172022-12-06 10:32:2853.9736-3.284222013019608Clb=3.7m/s t=-60.5C h=1.6% p=-1.0hPa 405.101 MHz Type=RS41-SG ser=U2750217 Radiosonde
F5RZC-14U27502172022-12-06 10:32:2453.9737-3.284141942419599Clb=4.2m/s t=-60.4C h=5.3% 405.10MHz Type=RS41-SG Details on http://radiosondy.info
G4VFL-14U27502172022-12-06 10:32:1453.9743-3.283762022019554Clb=5.2m/s t=-60.3C h=5.0% 405.10MHz Type=RS41-SG batt=2.7V Details on http://radiosondy.info
F5RZC-14U27502172022-12-06 10:32:0953.9746-3.283611983519531Clb=4.0m/s t=-60.4C h=5.2% 405.10MHz Type=RS41-SG Details on http://radiosondy.info
F5RZC-11U27502172022-12-06 10:32:0153.975-3.283461871719493Clb=5.0m/s t=-60.3C h=1.5% p=-1.0hPa 405.100 MHz Type=RS41-SG ser=U2750217 Radiosonde
G4VFL-14U27502172022-12-06 10:31:5853.9751-3.283441882619485Clb=3.2m/s t=-60.2C h=5.0% 405.10MHz Type=RS41-SG Details on http://radiosondy.info
G3HRZU27502172022-12-06 10:31:5753.9752-3.283441722219476Clb=4.8m/s t=-60.3C h=1.6% p=-1.0hPa 405.101 MHz Type=RS41-SG ser=U2750217 Radiosonde
F5RZC-11U27502172022-12-06 10:31:3053.9768-3.283181912819365Clb=4.4m/s t=-60.4C h=1.5% p=-1.0hPa 405.100 MHz Type=RS41-SG ser=U2750217 Radiosonde
G3HRZU27502172022-12-06 10:31:2653.9772-3.28311902619340Clb=3.8m/s t=-60.3C h=1.5% p=-1.0hPa 405.101 MHz Type=RS41-SG ser=U2750217 Radiosonde
F5RZC-11U27502172022-12-06 10:30:5953.9795-3.282551873919235Clb=4.2m/s t=-60.4C h=1.6% p=-1.0hPa 405.100 MHz Type=RS41-SG ser=U2750217 Radiosonde
G3HRZU27502172022-12-06 10:30:5553.9799-3.282461894319219Clb=3.2m/s t=-60.5C h=1.6% p=-1.0hPa 405.101 MHz Type=RS41-SG ser=U2750217 Radiosonde
G4VFL-14U27502172022-12-06 10:30:4653.9807-3.282221924419186Clb=3.6m/s t=-60.6C h=5.2% 405.10MHz Type=RS41-SG Details on http://radiosondy.info
G4VFL-14U27502172022-12-06 10:30:3053.9824-3.281821824119120Clb=4.4m/s t=-60.4C h=5.2% 405.10MHz Type=RS41-SG TxPastBurst=8h30m batt=2.6V Details on http://radiosondy.info
F5RZC-11U27502172022-12-06 10:30:2853.9829-3.281761884119103Clb=3.7m/s t=-60.4C h=1.6% p=-1.0hPa 405.100 MHz Type=RS41-SG ser=U2750217 Radiosonde
G3HRZU27502172022-12-06 10:30:2453.9831-3.281681903719091Clb=3.5m/s t=-60.2C h=1.6% p=-1.0hPa 405.101 MHz Type=RS41-SG ser=U2750217 Radiosonde
G4VFL-14U27502172022-12-06 10:30:1553.9839-3.281371964119057Clb=3.5m/s t=-59.9C h=5.0% 405.10MHz Type=RS41-SG Details on http://radiosondy.info
G4VFL-14U27502172022-12-06 10:30:0053.9853-3.280851923918992Clb=5.3m/s t=-60.0C h=5.0% 405.10MHz Type=RS41-SG Details on http://radiosondy.info
F5RZC-11U27502172022-12-06 10:29:5753.9857-3.280691943918973Clb=4.5m/s t=-60.2C h=1.5% p=-1.0hPa 405.100 MHz Type=RS41-SG ser=U2750217 Radiosonde
F5RZC-14U27502172022-12-06 10:29:5453.9859-3.280611943918963Clb=4.0m/s t=-60.4C h=5.2% 405.10MHz Type=RS41-SG batt=2.7V Details on http://radiosondy.info
G3HRZU27502172022-12-06 10:29:5353.9862-3.28051903518951Clb=4.4m/s t=-60.3C h=1.6% p=-1.0hPa 405.101 MHz Type=RS41-SG ser=U2750217 Radiosonde
G4VFL-14U27502172022-12-06 10:29:4553.9868-3.280291964118924Clb=4.0m/s t=-60.2C h=5.1% 405.10MHz Type=RS41-SG batt=2.7V Details on http://radiosondy.info
F5RZC-14U27502172022-12-06 10:29:3953.9874-3.280121824318899Clb=4.8m/s t=-60.1C h=5.0% 405.10MHz Type=RS41-SG Details on http://radiosondy.info
G4VFL-14U27502172022-12-06 10:29:3053.9883-3.280061894618856Clb=4.0m/s t=-60.0C h=5.0% 405.10MHz Type=RS41-SG Details on http://radiosondy.info
F5RZC-11U27502172022-12-06 10:29:2653.9888-3.279921854418833Clb=5.1m/s t=-60.2C h=1.6% p=-1.0hPa 405.100 MHz Type=RS41-SG ser=U2750217 Radiosonde
F5RZC-14U27502172022-12-06 10:29:2453.989-3.27991854818828Clb=3.7m/s t=-60.2C h=5.1% 405.10MHz Type=RS41-SG Details on http://radiosondy.info
G3HRZU27502172022-12-06 10:29:2253.9893-3.279861864118814Clb=4.5m/s t=-60.4C h=1.5% p=-1.0hPa 405.101 MHz Type=RS41-SG ser=U2750217 Radiosonde
G4VFL-14U27502172022-12-06 10:29:1453.9901-3.279661895218781Clb=5.0m/s t=-60.1C h=5.2% 405.10MHz Type=RS41-SG Details on http://radiosondy.info
F5RZC-14U27502172022-12-06 10:29:0953.9907-3.279541843718755Clb=3.9m/s t=-59.9C h=5.2% 405.10MHz Type=RS41-SG TxPastBurst=8h30m batt=2.6V Details on http://radiosondy.info
G4VFL-14U27502172022-12-06 10:28:5853.9921-3.27921865218700Clb=4.7m/s t=-59.4C h=5.1% 405.10MHz Type=RS41-SG batt=2.6V Details on http://radiosondy.info
F5RZC-11U27502172022-12-06 10:28:5553.9926-3.279151845018679Clb=5.5m/s t=-59.3C h=1.5% p=-1.0hPa 405.100 MHz Type=RS41-SG ser=U2750217 Radiosonde
G3HRZU27502172022-12-06 10:28:5053.9931-3.279071854818658Clb=4.8m/s t=-59.1C h=1.5% p=-1.0hPa 405.101 MHz Type=RS41-SG ser=U2750217 Radiosonde
F5RZC-11U27502172022-12-06 10:28:2453.9962-3.278691874418518Clb=5.1m/s t=-58.6C h=1.5% p=-1.0hPa 405.100 MHz Type=RS41-SG ser=U2750217 Radiosonde
G3HRZU27502172022-12-06 10:28:1953.9966-3.278621813918499Clb=5.4m/s t=-58.4C h=1.5% p=-1.0hPa 405.101 MHz Type=RS41-SG ser=U2750217 Radiosonde
F5RZC-11U27502172022-12-06 10:27:5253.9991-3.279051653718365Clb=4.1m/s t=-58.3C h=1.5% p=-1.0hPa 405.100 MHz Type=RS41-SG ser=U2750217 Radiosonde
G3HRZU27502172022-12-06 10:27:4853.9995-3.279231634418347Clb=4.9m/s t=-58.3C h=1.4% p=-1.0hPa 405.101 MHz Type=RS41-SG ser=U2750217 Radiosonde
G4VFL-14U27502172022-12-06 10:27:3354.0009-3.280411473718276Clb=4.8m/s t=-58.3C h=4.7% 405.10MHz Type=RS41-SG Details on http://radiosondy.info
F5RZC-11U27502172022-12-06 10:27:2154.0019-3.281481424318216Clb=4.1m/s t=-58.5C h=1.4% p=-1.0hPa 405.100 MHz Type=RS41-SG ser=U2750217 Radiosonde
G4VFL-14U27502172022-12-06 10:27:1854.0021-3.281721413518207Clb=3.7m/s t=-58.5C h=4.7% 405.10MHz Type=RS41-SG TxPastBurst=8h30m batt=2.7V Details on http://radiosondy.info
G3HRZU27502172022-12-06 10:27:1754.0023-3.281951444118198Clb=3.7m/s t=-58.5C h=1.5% p=-1.0hPa 405.101 MHz Type=RS41-SG ser=U2750217 Radiosonde
G4VFL-14U27502172022-12-06 10:27:0354.003-3.283221392818144Clb=4.5m/s t=-58.6C h=4.8% 405.10MHz Type=RS41-SG Details on http://radiosondy.info
F5RZC-14U27502172022-12-06 10:26:5454.0036-3.283891382618106Clb=3.5m/s t=-58.4C h=4.8% 405.10MHz Type=RS41-SG Details on http://radiosondy.info
F5RZC-11U27502172022-12-06 10:26:5054.0038-3.284191372418089Clb=4.3m/s t=-58.4C h=1.4% p=-1.0hPa 405.100 MHz Type=RS41-SG ser=U2750217 Radiosonde
G3HRZU27502172022-12-06 10:26:4654.004-3.284481392618072Clb=5.1m/s t=-58.4C h=1.5% p=-1.0hPa 405.101 MHz Type=RS41-SG ser=U2750217 Radiosonde
F5RZC-14U27502172022-12-06 10:26:3954.0043-3.285051312418040Clb=3.9m/s t=-58.1C h=4.7% 405.10MHz Type=RS41-SG Details on http://radiosondy.info
G4VFL-14U27502172022-12-06 10:26:3054.0047-3.285681412218001Clb=4.8m/s t=-58.4C h=4.7% 405.10MHz Type=RS41-SG batt=2.7V Details on http://radiosondy.info
F5RZC-14U27502172022-12-06 10:26:2454.005-3.286051472017973Clb=5.3m/s t=-58.3C h=4.7% 405.10MHz Type=RS41-SG batt=2.7V Details on http://radiosondy.info
F5RZC-11U27502172022-12-06 10:26:1954.0052-3.286291492217949Clb=5.9m/s t=-58.4C h=1.5% p=-1.0hPa 405.100 MHz Type=RS41-SG ser=U2750217 Radiosonde
G3HRZU27502172022-12-06 10:26:1554.0054-3.286521402217930Clb=3.3m/s t=-58.5C h=1.5% p=-1.0hPa 405.101 MHz Type=RS41-SG ser=U2750217 Radiosonde
G4VFL-14U27502172022-12-06 10:26:1454.0054-3.286571451517926Clb=5.3m/s t=-58.4C h=4.7% 405.10MHz Type=RS41-SG Details on http://radiosondy.info
F5RZC-14U27502172022-12-06 10:26:0954.0056-3.286711631517903Clb=3.6m/s t=-58.7C h=4.8% 405.10MHz Type=RS41-SG Details on http://radiosondy.info
G4VFL-14U27502172022-12-06 10:25:5954.006-3.286881631917857Clb=4.4m/s t=-58.6C h=4.8% 405.10MHz Type=RS41-SG Details on http://radiosondy.info
F5RZC-11U27502172022-12-06 10:25:4854.0064-3.286831841517807Clb=5.3m/s t=-58.8C h=1.5% p=-1.0hPa 405.100 MHz Type=RS41-SG ser=U2750217 Radiosonde
G3HRZU27502172022-12-06 10:25:4454.0066-3.286761951917785Clb=5.3m/s t=-58.9C h=1.6% p=-1.0hPa 405.101 MHz Type=RS41-SG ser=U2750217 Radiosonde
F5RZC-11U27502172022-12-06 10:25:1754.0084-3.285751943117663Clb=5.4m/s t=-58.8C h=1.6% p=-1.0hPa 405.100 MHz Type=RS41-SG ser=U2750217 Radiosonde
G3HRZU27502172022-12-06 10:25:1354.0087-3.285611883517645Clb=4.8m/s t=-58.6C h=1.6% p=-1.0hPa 405.101 MHz Type=RS41-SG ser=U2750217 Radiosonde
G4VFL-14U27502172022-12-06 10:24:4754.011-3.285421743517522Clb=4.8m/s t=-57.7C h=4.7% 405.10MHz Type=RS41-SG batt=2.7V Details on http://radiosondy.info
F5RZC-11U27502172022-12-06 10:24:4654.0111-3.285441703517518Clb=3.3m/s t=-57.7C h=1.5% p=-1.0hPa 405.100 MHz Type=RS41-SG ser=U2750217 Radiosonde
G3HRZU27502172022-12-06 10:24:4254.0115-3.285451803717496Clb=5.3m/s t=-57.7C h=1.5% p=-1.0hPa 405.101 MHz Type=RS41-SG ser=U2750217 Radiosonde
G4VFL-14U27502172022-12-06 10:24:3254.0123-3.285641673017454Clb=4.7m/s t=-57.4C h=4.7% 405.10MHz Type=RS41-SG Details on http://radiosondy.info
G4VFL-14U27502172022-12-06 10:24:1654.0134-3.286051682017376Clb=4.7m/s t=-57.4C h=4.5% 405.10MHz Type=RS41-SG Details on http://radiosondy.info
F5RZC-11U27502172022-12-06 10:24:1554.0135-3.286091682217366Clb=4.2m/s t=-57.4C h=1.5% p=-1.0hPa 405.100 MHz Type=RS41-SG ser=U2750217 Radiosonde
G3HRZU27502172022-12-06 10:24:1154.0138-3.286231701917337Clb=4.2m/s t=-57.4C h=1.5% p=-1.0hPa 405.101 MHz Type=RS41-SG ser=U2750217 Radiosonde
G4VFL-14U27502172022-12-06 10:24:0054.0141-3.286311721917300Clb=5.5m/s t=-57.6C h=4.6% 405.10MHz Type=RS41-SG TxPastBurst=8h30m batt=2.7V Details on http://radiosondy.info
F5RZC-14U27502172022-12-06 10:23:5354.0144-3.286391712017269Clb=4.0m/s t=-57.7C h=4.5% 405.10MHz Type=RS41-SG Details on http://radiosondy.info
G4VFL-14U27502172022-12-06 10:23:4454.0148-3.286561742017230Clb=3.2m/s t=-58.1C h=4.8% 405.10MHz Type=RS41-SG Details on http://radiosondy.info
G3HRZU27502172022-12-06 10:23:4054.015-3.286561881717207Clb=3.9m/s t=-58.2C h=1.6% p=-1.0hPa 405.101 MHz Type=RS41-SG ser=U2750217 Radiosonde
F5RZC-14U27502172022-12-06 10:23:3854.0151-3.286551892417204Clb=4.4m/s t=-58.1C h=4.7% 405.10MHz Type=RS41-SG batt=2.6V Details on http://radiosondy.info
G4VFL-14U27502172022-12-06 10:23:2854.0156-3.286431802817159Clb=4.3m/s t=-58.7C h=5.0% 405.10MHz Type=RS41-SG Details on http://radiosondy.info
F5RZC-14U27502172022-12-06 10:23:2354.016-3.286461762817136Clb=4.1m/s t=-58.6C h=4.9% 405.10MHz Type=RS41-SG Details on http://radiosondy.info
F5RZC-11U27502172022-12-06 10:23:1354.0168-3.286361903017086Clb=4.9m/s t=-58.5C h=1.6% p=-1.0hPa 405.100 MHz Type=RS41-SG ser=U2750217 Radiosonde
G4VFL-14U27502172022-12-06 10:23:1254.0168-3.286361912617086Clb=4.8m/s t=-58.5C h=4.9% 405.10MHz Type=RS41-SG batt=2.7V Details on http://radiosondy.info
F5RZC-14U27502172022-12-06 10:23:0854.017-3.286212073017069Clb=3.6m/s t=-58.4C h=4.8% 405.10MHz Type=RS41-SG Details on http://radiosondy.info
G4VFL-14U27502172022-12-06 10:22:5754.0176-3.285792083017023Clb=4.3m/s t=-58.1C h=4.8% 405.10MHz Type=RS41-SG Details on http://radiosondy.info
F5RZC-11U27502172022-12-06 10:22:4254.0188-3.2851953316952Clb=5.4m/s t=-58.3C h=1.6% p=-1.0hPa 405.100 MHz Type=RS41-SG ser=U2750217 Radiosonde
G3HRZU27502172022-12-06 10:22:3854.0193-3.284761903916926Clb=3.9m/s t=-58.1C h=1.6% p=-1.0hPa 405.101 MHz Type=RS41-SG ser=U2750217 Radiosonde
F5RZC-11U27502172022-12-06 10:22:1154.0219-3.283931903116816Clb=3.8m/s t=-57.9C h=1.6% p=-1.0hPa 405.100 MHz Type=RS41-SG ser=U2750217 Radiosonde
G3HRZU27502172022-12-06 10:22:0754.0222-3.283861923016798Clb=5.1m/s t=-57.7C h=1.6% p=-1.0hPa 405.101 MHz Type=RS41-SG ser=U2750217 Radiosonde
G4VFL-14U27502172022-12-06 10:21:4454.0238-3.283481692816704Clb=4.8m/s t=-57.3C h=4.7% 405.10MHz Type=RS41-SG Details on http://radiosondy.info
F5RZC-11U27502172022-12-06 10:21:4054.0241-3.283521832816681Clb=5.0m/s t=-57.1C h=1.6% p=-1.0hPa 405.100 MHz Type=RS41-SG ser=U2750217 Radiosonde
G3HRZU27502172022-12-06 10:21:3654.0244-3.28351792616664Clb=3.2m/s t=-56.9C h=1.6% p=-1.0hPa 405.101 MHz Type=RS41-SG ser=U2750217 Radiosonde
G4VFL-14U27502172022-12-06 10:21:2854.0249-3.283621732816634Clb=4.7m/s t=-56.8C h=4.5% 405.10MHz Type=RS41-SG batt=2.6V Details on http://radiosondy.info
G4VFL-14U27502172022-12-06 10:21:1354.0258-3.283991643016569Clb=4.7m/s t=-57.0C h=4.5% 405.10MHz Type=RS41-SG Details on http://radiosondy.info
F5RZC-11U27502172022-12-06 10:21:0954.0261-3.284081702616547Clb=4.6m/s t=-57.0C h=1.5% p=-1.0hPa 405.100 MHz Type=RS41-SG ser=U2750217 Radiosonde
G3HRZU27502172022-12-06 10:21:0554.0264-3.28421603116529Clb=3.5m/s t=-57.0C h=1.5% p=-1.0hPa 405.101 MHz Type=RS41-SG ser=U2750217 Radiosonde
G4VFL-14U27502172022-12-06 10:20:5854.0269-3.284471673016504Clb=3.6m/s t=-57.1C h=4.6% 405.10MHz Type=RS41-SG Details on http://radiosondy.info
F5RZC-14U27502172022-12-06 10:20:5354.0273-3.28451843016482Clb=3.9m/s t=-57.2C h=4.6% 405.10MHz Type=RS41-SG TxPastBurst=8h30m batt=2.7V Details on http://radiosondy.info
G4VFL-14U27502172022-12-06 10:20:4354.028-3.284671562816438Clb=3.6m/s t=-57.2C h=4.6% 405.10MHz Type=RS41-SG TxPastBurst=8h30m batt=2.7V Details on http://radiosondy.info
F5RZC-14U27502172022-12-06 10:20:3854.0284-3.284931522616416Clb=4.7m/s t=-57.0C h=4.6% 405.10MHz Type=RS41-SG Details on http://radiosondy.info
F5RZC-11U27502172022-12-06 10:20:3754.0284-3.284991512416411Clb=3.7m/s t=-57.1C h=1.6% p=-1.0hPa 405.100 MHz Type=RS41-SG ser=U2750217 Radiosonde
G3HRZU27502172022-12-06 10:20:3354.0287-3.285131642416395Clb=4.2m/s t=-56.9C h=1.6% p=-1.0hPa 405.101 MHz Type=RS41-SG ser=U2750217 Radiosonde
G4VFL-14U27502172022-12-06 10:20:2854.029-3.285341582616373Clb=3.9m/s t=-56.7C h=4.5% 405.10MHz Type=RS41-SG Details on http://radiosondy.info
F5RZC-14U27502172022-12-06 10:20:2354.0292-3.285551572616352Clb=4.4m/s t=-56.5C h=4.5% 405.10MHz Type=RS41-SG Details on http://radiosondy.info
G4VFL-14U27502172022-12-06 10:20:1354.0298-3.2861612216311Clb=3.6m/s t=-56.2C h=4.5% 405.10MHz Type=RS41-SG Details on http://radiosondy.info
F5RZC-14U27502172022-12-06 10:20:0854.0301-3.28621551516290Clb=4.6m/s t=-56.1C h=4.3% calibration 98% 405.10MHz Type=RS41-SG batt=2.6V Details on http://radiosondy.info
F5RZC-11U27502172022-12-06 10:20:0654.0302-3.286281572016281Clb=3.9m/s t=-56.1C h=1.4% p=-1.0hPa 405.100 MHz Type=RS41-SG ser=U2750217 Radiosonde
G3HRZU27502172022-12-06 10:20:0254.0304-3.286391602216264Clb=4.0m/s t=-56.0C h=1.5% p=-1.0hPa 405.101 MHz Type=RS41-SG ser=U2750217 Radiosonde
G4VFL-14U27502172022-12-06 10:19:5854.0306-3.286531542016247Clb=5.1m/s t=-56.0C h=4.3% 405.10MHz Type=RS41-SG batt=2.6V Details on http://radiosondy.info
F5RZC-11U27502172022-12-06 10:19:3554.0313-3.287251281116148Clb=4.1m/s t=-56.0C h=1.5% p=-1.0hPa 405.100 MHz Type=RS41-SG ser=U2750217 Radiosonde
G3HRZU27502172022-12-06 10:19:3154.0314-3.287421171116132Clb=3.2m/s t=-55.9C h=1.5% p=-1.0hPa 405.101 MHz Type=RS41-SG ser=U2750217 Radiosonde
F5RZC-11U27502172022-12-06 10:19:0454.0323-3.289051342416011Clb=4.4m/s t=-55.8C h=1.5% p=-1.0hPa 405.100 MHz Type=RS41-SG ser=U2750217 Radiosonde
G3HRZU27502172022-12-06 10:19:0054.0324-3.289241482015999Clb=4.4m/s t=-56.0C h=1.5% p=-1.0hPa 405.101 MHz Type=RS41-SG ser=U2750217 Radiosonde
G4VFL-14U27502172022-12-06 10:18:4854.033-3.290041392415947Clb=4.9m/s t=-56.3C h=4.4% 405.10MHz Type=RS41-SG Details on http://radiosondy.info
F5RZC-11U27502172022-12-06 10:18:3354.0337-3.290821551715883Clb=3.6m/s t=-56.7C h=1.6% p=-1.0hPa 405.100 MHz Type=RS41-SG ser=U2750217 Radiosonde
G4VFL-14U27502172022-12-06 10:18:3254.0338-3.290851571915879Clb=4.5m/s t=-56.7C h=4.5% 405.10MHz Type=RS41-SG Details on http://radiosondy.info
G3HRZU27502172022-12-06 10:18:2954.034-3.290951661915862Clb=3.3m/s t=-56.8C h=1.6% p=-1.0hPa 405.101 MHz Type=RS41-SG ser=U2750217 Radiosonde
G4VFL-14U27502172022-12-06 10:18:1654.0344-3.291211721315811Clb=4.7m/s t=-56.6C h=4.6% 405.10MHz Type=RS41-SG batt=2.6V Details on http://radiosondy.info
F5RZC-11U27502172022-12-06 10:18:0254.0349-3.291481531315746Clb=4.9m/s t=-56.6C h=1.6% p=-1.0hPa 405.100 MHz Type=RS41-SG ser=U2750217 Radiosonde
G4VFL-14U27502172022-12-06 10:18:0054.0349-3.2915158915741Clb=3.2m/s t=-56.6C h=4.6% 405.10MHz Type=RS41-SG Details on http://radiosondy.info
G3HRZU27502172022-12-06 10:17:5854.035-3.291551511115734Clb=4.8m/s t=-56.6C h=1.6% p=-1.0hPa 405.101 MHz Type=RS41-SG ser=U2750217 Radiosonde
F5RZC-14U27502172022-12-06 10:17:5754.035-3.29157139915730Clb=3.7m/s t=-56.5C h=4.5% calibration 96% 405.10MHz Type=RS41-SG Details on http://radiosondy.info
G4VFL-14U27502172022-12-06 10:17:4454.0352-3.29165194715675Clb=4.8m/s t=-56.7C h=4.5% 405.10MHz Type=RS41-SG Details on http://radiosondy.info
F5RZC-14U27502172022-12-06 10:17:4254.0353-3.29163187615666Clb=5.1m/s t=-56.8C h=4.6% calibration 72% 405.10MHz Type=RS41 Details on http://radiosondy.info
F5RZC-11U27502172022-12-06 10:17:3154.0354-3.29152236215618Clb=5.0m/s t=-56.7C h=1.6% p=-1.0hPa 405.100 MHz Type=RS41-SG ser=U2750217 Radiosonde
G4VFL-14U27502172022-12-06 10:17:2954.0354-3.2915222615610Clb=4.5m/s t=-56.5C h=4.6% 405.10MHz Type=RS41-SG TxPastBurst=8h30m batt=2.7V Details on http://radiosondy.info
F5RZC-14U27502172022-12-06 10:17:2754.0354-3.29149176615601Clb=3.9m/s t=-56.4C calibration 52% 405.10MHz Type=RS41 batt=2.6V Details on http://radiosondy.info
G4VFL-14U27502172022-12-06 10:17:1354.0356-3.29153136715540Clb=4.6m/s t=-56.3C h=4.5% 405.10MHz Type=RS41-SG Details on http://radiosondy.info
F5RZC-14U27502172022-12-06 10:17:1254.0356-3.291551411715535Clb=4.2m/s calibration 35% Type=RS41 Details on http://radiosondy.info
F5RZC-11U27502172022-12-06 10:17:0054.0358-3.29174132415484Clb=4.6m/s t=-56.1C h=1.6% p=-1.0hPa 405.100 MHz Type=RS41-SG ser=U2750217 Radiosonde
G4VFL-14U27502172022-12-06 10:16:5754.0358-3.29178154415471Clb=4.5m/s t=-56.0C h=4.5% 405.10MHz Type=RS41-SG Details on http://radiosondy.info
G3HRZU27502172022-12-06 10:16:5654.0358-3.29179156415466Clb=4.4m/s t=-56.0C h=1.6% p=-1.0hPa 405.101 MHz Type=RS41-SG ser=U2750217 Radiosonde
F5RZC-11U27502172022-12-06 10:16:2954.0362-3.291951391115344Clb=4.8m/s t=-55.2C h=-1.0% p=-1.0hPa 405.100 MHz Type=RS41-SG ser=U2750217 Radiosonde
G3HRZU27502172022-12-06 10:16:2554.0363-3.292091481315323Clb=4.5m/s t=-55.1C h=1.5% p=-1.0hPa 405.101 MHz Type=RS41-SG ser=U2750217 Radiosonde
F5RZC-11U27502172022-12-06 10:15:5854.0372-3.293011491915220Clb=4.7m/s t=-273.0C h=-1.0% p=-1.0hPa 405.100 MHz Type=RS41 ser=U2750217 Radiosonde
G3HRZU27502172022-12-06 10:15:5454.0374-3.293171641715195Clb=3.3m/s t=-55.7C h=1.6% p=-1.0hPa 405.101 MHz Type=RS41-SG ser=U2750217 Radiosonde
G4VFL-14U27502172022-12-06 10:15:4854.0376-3.293251671915180Clb=3.5m/s t=-55.7C h=4.4% 405.10MHz Type=RS41-SG batt=2.7V Details on http://radiosondy.info
G4VFL-14U27502172022-12-06 10:15:3254.0384-3.293421732215115Clb=3.3m/s t=-55.3C h=4.2% 405.10MHz Type=RS41-SG Details on http://radiosondy.info
G3HRZU27502172022-12-06 10:15:2354.039-3.293411762415065Clb=4.9m/s t=-55.5C h=1.6% p=-1.0hPa 405.101 MHz Type=RS41-SG ser=U2750217 Radiosonde
G4VFL-14U27502172022-12-06 10:15:1654.0393-3.293431812815050Clb=3.7m/s t=-55.5C h=4.4% 405.10MHz Type=RS41-SG Details on http://radiosondy.info
G4VFL-14U27502172022-12-06 10:15:0054.0404-3.293211823114985Clb=4.3m/s t=-55.4C h=4.3% 405.10MHz Type=RS41-SG batt=2.7V Details on http://radiosondy.info
F5RZC-14U27502172022-12-06 10:14:5554.0408-3.293231843314964Clb=3.3m/s calibration 25% Type=RS41 Details on http://radiosondy.info
G3HRZU27502172022-12-06 10:14:5254.0412-3.293211813014943Clb=3.6m/s t=-55.6C h=1.6% p=-1.0hPa 405.101 MHz Type=RS41-SG ser=U2750217 Radiosonde
G4VFL-14U27502172022-12-06 10:14:4454.0416-3.293231773114918Clb=5.0m/s t=-55.8C h=4.3% 405.10MHz Type=RS41-SG Details on http://radiosondy.info
F5RZC-14U27502172022-12-06 10:14:3754.0422-3.29331763114887Clb=3.8m/s calibration 9% Type=RS41 batt=2.6V Details on http://radiosondy.info
G4VFL-14U27502172022-12-06 10:14:2954.0428-3.293421703314852Clb=5.1m/s t=-56.3C h=4.5% 405.10MHz Type=RS41-SG Details on http://radiosondy.info
G3HRZU27502172022-12-06 10:14:2154.0436-3.293771643114808Clb=4.5m/s t=-56.2C h=1.6% p=-1.0hPa 405.101 MHz Type=RS41-SG ser=U2750217 Radiosonde
G4VFL-14U27502172022-12-06 10:14:1454.044-3.294011543014786Clb=3.9m/s t=-56.3C h=4.5% 405.10MHz Type=RS41-SG TxPastBurst=8h30m batt=2.6V Details on http://radiosondy.info
G4VFL-14U27502172022-12-06 10:13:5854.0451-3.294731512214719Clb=4.7m/s t=-56.4C h=4.5% 405.10MHz Type=RS41-SG Details on http://radiosondy.info
G3HRZU27502172022-12-06 10:13:5054.0456-3.295251502014683Clb=4.2m/s t=-56.4C h=1.7% p=-1.0hPa 405.101 MHz Type=RS41-SG ser=U2750217 Radiosonde
G3HRZU27502172022-12-06 10:13:1954.0469-3.296571551714549Clb=4.5m/s t=-56.0C h=1.6% p=-1.0hPa 405.101 MHz Type=RS41-SG ser=U2750217 Radiosonde
G3HRZU27502172022-12-06 10:12:4854.0483-3.297081881114423Clb=2.8m/s t=-56.5C h=1.6% p=-1.0hPa 405.101 MHz Type=RS41-SG ser=U2750217 Radiosonde
G4VFL-14U27502172022-12-06 10:12:4554.0483-3.297052002014415Clb=4.3m/s t=-56.6C h=4.5% 405.10MHz Type=RS41-SG Details on http://radiosondy.info
G4VFL-14U27502172022-12-06 10:12:2954.0492-3.296741952414349Clb=3.5m/s t=-56.6C h=4.5% 405.10MHz Type=RS41-SG batt=2.6V Details on http://radiosondy.info
G3HRZU27502172022-12-06 10:12:1654.0499-3.296581792414295Clb=4.0m/s t=-56.8C h=1.7% p=-1.0hPa 405.101 MHz Type=RS41-SG ser=U2750217 Radiosonde
G4VFL-14U27502172022-12-06 10:12:1354.0501-3.296581792214284Clb=4.4m/s t=-56.8C h=4.5% 405.10MHz Type=RS41-SG Details on http://radiosondy.info
G4VFL-14U27502172022-12-06 10:11:5754.051-3.296561932414222Clb=3.6m/s t=-57.1C h=4.6% 405.10MHz Type=RS41-SG Details on http://radiosondy.info
G3HRZU27502172022-12-06 10:11:4554.0517-3.296471842414174Clb=4.4m/s t=-56.9C h=1.7% p=-1.0hPa 405.101 MHz Type=RS41-SG ser=U2750217 Radiosonde
G4VFL-14U27502172022-12-06 10:11:4254.0519-3.296451872614161Clb=4.9m/s t=-56.9C h=4.5% 405.10MHz Type=RS41-SG batt=2.6V Details on http://radiosondy.info
G4VFL-14U27502172022-12-06 10:11:2754.0529-3.296421813314097Clb=4.4m/s t=-57.2C h=4.7% 405.10MHz Type=RS41-SG Details on http://radiosondy.info
G3HRZU27502172022-12-06 10:11:1454.054-3.296471743914042Clb=4.0m/s t=-56.9C h=1.7% p=-1.0hPa 405.101 MHz Type=RS41-SG ser=U2750217 Radiosonde
G4VFL-14U27502172022-12-06 10:11:1254.0542-3.296491783714035Clb=4.7m/s t=-56.7C h=4.6% 405.10MHz Type=RS41-SG Details on http://radiosondy.info
G4VFL-14U27502172022-12-06 10:10:5754.0556-3.296711743913970Clb=4.9m/s t=-56.7C h=4.5% 405.10MHz Type=RS41-SG TxPastBurst=8h30m batt=2.7V Details on http://radiosondy.info
G3HRZU27502172022-12-06 10:10:4354.0568-3.297061663113909Clb=3.2m/s t=-56.6C h=1.7% p=-1.0hPa 405.101 MHz Type=RS41-SG ser=U2750217 Radiosonde
G3HRZU27502172022-12-06 10:10:1254.0594-3.298841523113769Clb=4.6m/s t=-56.0C h=1.6% p=-1.0hPa 405.101 MHz Type=RS41-SG ser=U2750217 Radiosonde
G4VFL-14U27502172022-12-06 10:09:4754.0609-3.300711312413665Clb=4.9m/s t=-55.6C h=4.4% 405.10MHz Type=RS41-SG Details on http://radiosondy.info
G3HRZU27502172022-12-06 10:09:4154.0612-3.301131291713637Clb=3.4m/s t=-55.5C h=1.6% p=-1.0hPa 405.101 MHz Type=RS41-SG ser=U2750217 Radiosonde
G4VFL-14U27502172022-12-06 10:09:3254.0615-3.301731382213597Clb=5.6m/s t=-55.2C h=4.2% 405.10MHz Type=RS41-SG Details on http://radiosondy.info
G4VFL-14U27502172022-12-06 10:09:1654.0623-3.30261682813518Clb=4.5m/s t=-54.5C h=4.0% 405.10MHz Type=RS41-SG batt=2.7V Details on http://radiosondy.info
G3HRZU27502172022-12-06 10:09:1054.0627-3.302871593013483Clb=5.2m/s t=-54.2C h=1.6% p=-1.0hPa 405.101 MHz Type=RS41-SG ser=U2750217 Radiosonde
G4VFL-14U27502172022-12-06 10:08:5954.0634-3.303291573013442Clb=4.7m/s t=-53.8C h=4.0% 405.10MHz Type=RS41-SG Details on http://radiosondy.info
G4VFL-14U27502172022-12-06 10:08:4454.0644-3.303921632813382Clb=4.3m/s t=-53.4C h=4.0% 405.10MHz Type=RS41-SG Details on http://radiosondy.info
G3HRZU27502172022-12-06 10:08:3954.0648-3.30411632613363Clb=4.1m/s t=-53.5C h=1.6% p=-1.0hPa 405.101 MHz Type=RS41-SG ser=U2750217 Radiosonde
G4VFL-14U27502172022-12-06 10:08:2854.0655-3.304431602613323Clb=3.0m/s t=-53.7C h=4.1% 405.10MHz Type=RS41-SG batt=2.7V Details on http://radiosondy.info
G4VFL-14U27502172022-12-06 10:08:1254.0665-3.304721683013266Clb=3.0m/s t=-54.2C h=4.2% 405.10MHz Type=RS41-SG Details on http://radiosondy.info
G3HRZU27502172022-12-06 10:08:0854.0668-3.304811713013251Clb=4.2m/s t=-54.5C h=1.8% p=-1.0hPa 405.101 MHz Type=RS41-SG ser=U2750217 Radiosonde
G4VFL-14U27502172022-12-06 10:07:5654.0677-3.304971703513210Clb=4.1m/s t=-55.1C h=4.3% 405.10MHz Type=RS41-SG Details on http://radiosondy.info
G3HRZU27502172022-12-06 10:07:3754.0695-3.305431743713146Clb=2.7m/s t=-55.6C h=1.9% p=-1.0hPa 405.101 MHz Type=RS41-SG ser=U2750217 Radiosonde
G3HRZU27502172022-12-06 10:07:0654.0728-3.306871634113035Clb=4.6m/s t=-55.6C h=2.1% p=-1.0hPa 405.101 MHz Type=RS41-SG ser=U2750217 Radiosonde
G4VFL-14U27502172022-12-06 10:06:4954.0745-3.307691634112966Clb=2.9m/s t=-55.4C h=4.7% 405.10MHz Type=RS41-SG TxPastBurst=8h30m batt=2.7V Details on http://radiosondy.info
M0NRDU27502172022-12-06 10:06:4554.0757-3.308081693712910Clb=3.6m/s t=-273.0C h=-1.0% p=-1.0hPa 405.101 MHz Type=RS41-SG Radiosonde
G3HRZU27502172022-12-06 10:06:3554.0759-3.308141653712902Clb=4.4m/s t=-55.5C h=2.2% p=-1.0hPa 405.101 MHz Type=RS41-SG ser=U2750217 Radiosonde
G4VFL-14U27502172022-12-06 10:06:3454.0759-3.308141663912902Clb=4.3m/s t=-55.5C h=4.8% 405.10MHz Type=RS41-SG Details on http://radiosondy.info
G4VFL-14U27502172022-12-06 10:06:1854.0774-3.308881593712833Clb=5.4m/s t=-55.4C h=4.8% 405.10MHz Type=RS41-SG Details on http://radiosondy.info
M0NRDU27502172022-12-06 10:06:1454.0787-3.309721503512770Clb=2.9m/s t=-273.0C h=-1.0% p=-1.0hPa 405.101 MHz Type=RS41-SG Radiosonde
G3HRZU27502172022-12-06 10:06:0454.0788-3.309791503312766Clb=4.6m/s t=-55.5C h=2.2% p=-1.0hPa 405.101 MHz Type=RS41-SG ser=U2750217 Radiosonde
G4VFL-14U27502172022-12-06 10:06:0254.0788-3.309791513312766Clb=4.5m/s t=-55.4C h=4.8% 405.10MHz Type=RS41-SG batt=2.7V Details on http://radiosondy.info
G4VFL-14U27502172022-12-06 10:05:4554.08-3.310891533512692Clb=3.7m/s t=-55.5C h=5.0% 405.10MHz Type=RS41-SG Details on http://radiosondy.info
M0NRDU27502172022-12-06 10:05:4354.0802-3.311091523512681Clb=3.0m/s t=-273.0C h=-1.0% p=-1.0hPa 405.101 MHz Type=RS41-SG Radiosonde
G3HRZU27502172022-12-06 10:05:3354.081-3.311721543712641Clb=3.3m/s t=-55.6C h=2.3% p=-1.0hPa 405.101 MHz Type=RS41-SG ser=U2750217 Radiosonde
G4VFL-14U27502172022-12-06 10:05:2954.0812-3.311941543312629Clb=4.5m/s t=-55.5C h=4.9% 405.10MHz Type=RS41-SG Details on http://radiosondy.info
G4VFL-14U27502172022-12-06 10:05:1354.0824-3.313021642812565Clb=4.2m/s t=-55.0C h=4.9% 405.10MHz Type=RS41-SG batt=2.6V Details on http://radiosondy.info
M0NRDU27502172022-12-06 10:05:1254.0826-3.31311623012557Clb=5.1m/s t=-273.0C h=-1.0% p=-1.0hPa 405.101 MHz Type=RS41-SG Radiosonde
G3HRZU27502172022-12-06 10:05:0254.0833-3.31361552412510Clb=3.5m/s t=-54.8C h=2.3% p=-1.0hPa 405.101 MHz Type=RS41-SG ser=U2750217 Radiosonde
G4VFL-14U27502172022-12-06 10:04:5754.0834-3.313751533112498Clb=4.1m/s t=-54.7C h=4.9% 405.10MHz Type=RS41-SG Details on http://radiosondy.info
M0NRDU27502172022-12-06 10:04:4154.0844-3.314381642412432Clb=4.1m/s t=-273.0C h=-1.0% p=-1.0hPa 405.101 MHz Type=RS41-SG Radiosonde
G3HRZU27502172022-12-06 10:04:3154.0849-3.314621712612394Clb=4.0m/s t=-54.4C h=2.5% p=-1.0hPa 405.101 MHz Type=RS41-SG ser=U2750217 Radiosonde
M0NRDU27502172022-12-06 10:04:0954.0864-3.314661803312322Clb=4.0m/s t=-273.0C h=-1.0% p=-1.0hPa 405.101 MHz Type=RS41 Radiosonde
G3HRZU27502172022-12-06 10:03:5954.0873-3.314731764412266Clb=4.7m/s t=-56.2C h=3.5% p=-1.0hPa 405.101 MHz Type=RS41-SG ser=U2750217 Radiosonde
G4VFL-14U27502172022-12-06 10:03:4554.0889-3.315011754812210Clb=3.8m/s t=-57.0C h=7.0% 405.10MHz Type=RS41-SG Details on http://radiosondy.info
G4VFL-14U27502172022-12-06 10:03:2954.0908-3.315571704612143Clb=4.2m/s t=-57.0C h=7.3% 405.10MHz Type=RS41-SG TxPastBurst=8h30m batt=2.7V Details on http://radiosondy.info
G3HRZU27502172022-12-06 10:03:2854.0909-3.315611714812137Clb=5.5m/s t=-57.1C h=4.3% p=-1.0hPa 405.101 MHz Type=RS41-SG ser=U2750217 Radiosonde
G4VFL-14U27502172022-12-06 10:03:1454.0925-3.316081634612075Clb=4.4m/s t=-57.2C h=7.5% 405.10MHz Type=RS41-SG Details on http://radiosondy.info
G4VFL-14U27502172022-12-06 10:02:5954.0941-3.317051563912008Clb=4.8m/s t=-57.3C h=8.0% 405.10MHz Type=RS41-SG Details on http://radiosondy.info
G3HRZU27502172022-12-06 10:02:5754.0943-3.31721564111999Clb=4.2m/s t=-57.4C h=4.8% p=-1.0hPa 405.101 MHz Type=RS41-SG ser=U2750217 Radiosonde
G4VFL-14U27502172022-12-06 10:02:4354.0954-3.318251482811935Clb=4.6m/s t=-57.0C h=8.0% 405.10MHz Type=RS41-SG batt=2.7V Details on http://radiosondy.info
G4VFL-14U27502172022-12-06 10:02:2754.0961-3.319561252611863Clb=5.3m/s t=-56.3C h=8.0% 405.10MHz Type=RS41-SG Details on http://radiosondy.info
G3HRZU27502172022-12-06 10:02:2654.0961-3.319651232211859Clb=3.1m/s t=-56.3C h=5.1% p=-1.0hPa 405.101 MHz Type=RS41-SG ser=U2750217 Radiosonde
G4VFL-14U27502172022-12-06 10:02:1254.0967-3.320871302811803Clb=3.3m/s t=-55.8C h=8.4% 405.10MHz Type=RS41-SG Details on http://radiosondy.info
G4VFL-14U27502172022-12-06 10:01:5754.0973-3.322261333111745Clb=3.9m/s t=-56.1C h=10.1% 405.10MHz Type=RS41-SG batt=2.7V Details on http://radiosondy.info
G3HRZU27502172022-12-06 10:01:5554.0974-3.322551243011733Clb=2.6m/s t=-56.1C h=6.9% p=-1.0hPa 405.101 MHz Type=RS41-SG ser=U2750217 Radiosonde
G3HRZU27502172022-12-06 10:01:2454.0993-3.325611343511619Clb=4.5m/s t=-58.2C h=10.6% p=-1.0hPa 405.101 MHz Type=RS41-SG ser=U2750217 Radiosonde
G3HRZU27502172022-12-06 10:00:5354.1013-3.327181592611500Clb=3.5m/s t=-59.8C h=13.8% p=-1.0hPa 405.101 MHz Type=RS41-SG ser=U2750217 Radiosonde
G4VFL-14U27502172022-12-06 10:00:4954.1016-3.327341632411483Clb=4.1m/s t=-59.8C h=18.5% 405.10MHz Type=RS41-SG Details on http://radiosondy.info
G4VFL-14U27502172022-12-06 10:00:3354.1025-3.327751611311416Clb=4.3m/s t=-59.9C h=19.5% 405.10MHz Type=RS41-SG Details on http://radiosondy.info
G3HRZU27502172022-12-06 10:00:2254.1028-3.327811701911368Clb=5.2m/s t=-59.5C h=14.3% p=-1.0hPa 405.101 MHz Type=RS41-SG ser=U2750217 Radiosonde
G4VFL-14U27502172022-12-06 10:00:1754.103-3.32782162411344Clb=4.4m/s t=-59.3C h=18.5% 405.10MHz Type=RS41-SG TxPastBurst=8h30m batt=2.7V Details on http://radiosondy.info
G4VFL-14U27502172022-12-06 10:00:0254.1038-3.327261832611269Clb=5.4m/s t=-58.7C h=18.8% 405.10MHz Type=RS41-SG Details on http://radiosondy.info
G3HRZU27502172022-12-06 09:59:5154.1044-3.326622142211196Clb=5.1m/s t=-58.5C h=13.9% p=-1.0hPa 405.101 MHz Type=RS41-SG ser=U2750217 Radiosonde
G4VFL-14U27502172022-12-06 09:59:4654.1047-3.326362083311175Clb=5.3m/s t=-58.4C h=18.5% 405.10MHz Type=RS41-SG Details on http://radiosondy.info
G4VFL-14U27502172022-12-06 09:59:3054.1058-3.325192104111103Clb=5.1m/s t=-58.3C h=18.6% 405.10MHz Type=RS41-SG batt=2.7V Details on http://radiosondy.info
G3HRZU27502172022-12-06 09:59:2054.1066-3.324471994111057Clb=4.2m/s t=-58.2C h=14.6% p=-1.0hPa 405.101 MHz Type=RS41-SG ser=U2750217 Radiosonde
G4VFL-14U27502172022-12-06 09:59:1454.1073-3.324131974811030Clb=5.2m/s t=-58.1C h=18.5% 405.10MHz Type=RS41-SG Details on http://radiosondy.info
G4VFL-14U27502172022-12-06 09:58:5854.1092-3.323191946310956Clb=3.3m/s t=-57.8C h=18.2% 405.10MHz Type=RS41-SG Details on http://radiosondy.info
G3HRZU27502172022-12-06 09:58:4954.1105-3.32261925610911Clb=4.9m/s t=-57.6C h=13.9% p=-1.0hPa 405.101 MHz Type=RS41-SG ser=U2750217 Radiosonde
G3HRZU27502172022-12-06 09:58:1854.1152-3.321361856710771Clb=4.1m/s t=-56.7C h=13.9% p=-1.0hPa 405.101 MHz Type=RS41-SG ser=U2750217 Radiosonde
G3HRZU27502172022-12-06 09:57:4754.1206-3.321031786910634Clb=4.2m/s t=-56.1C h=14.3% p=-1.0hPa 405.101 MHz Type=RS41-SG ser=U2750217 Radiosonde
G4VFL-14U27502172022-12-06 09:57:3554.1225-3.321211756710592Clb=4.7m/s t=-55.8C h=18.1% 405.10MHz Type=RS41-SG batt=2.7V Details on http://radiosondy.info
G4VFL-14U27502172022-12-06 09:57:1954.1251-3.321631766110521Clb=2.5m/s t=-55.5C h=18.2% 405.10MHz Type=RS41-SG Details on http://radiosondy.info
G3HRZU27502172022-12-06 09:57:1654.1257-3.321771696310506Clb=4.5m/s t=-55.4C h=15.2% p=-1.0hPa 405.101 MHz Type=RS41-SG ser=U2750217 Radiosonde
G4VFL-14U27502172022-12-06 09:57:0354.1275-3.322111715410449Clb=5.7m/s t=-55.4C h=18.3% 405.10MHz Type=RS41-SG Details on http://radiosondy.info
G4VFL-14U27502172022-12-06 09:56:4754.1296-3.323221584410382Clb=3.7m/s t=-55.9C h=18.6% 405.10MHz Type=RS41-SG TxPastBurst=8h30m batt=2.7V Details on http://radiosondy.info
G3HRZU27502172022-12-06 09:56:4554.13-3.323541564610366Clb=3.1m/s t=-55.8C h=14.6% p=-1.0hPa 405.101 MHz Type=RS41-SG ser=U2750217 Radiosonde
G4VFL-14U27502172022-12-06 09:56:3154.1312-3.324531574110323Clb=3.8m/s t=-55.4C h=18.2% 405.10MHz Type=RS41-SG Details on http://radiosondy.info
G4VFL-14U27502172022-12-06 09:56:1554.1327-3.325661583910264Clb=2.6m/s t=-54.9C h=17.1% 405.10MHz Type=RS41-SG Details on http://radiosondy.info
G3HRZU27502172022-12-06 09:56:1454.1329-3.325781593710257Clb=3.1m/s t=-54.9C h=13.7% p=-1.0hPa 405.101 MHz Type=RS41-SG ser=U2750217 Radiosonde
G4VFL-14U27502172022-12-06 09:55:5954.1341-3.326691563710205Clb=4.5m/s t=-54.3C h=16.1% 405.10MHz Type=RS41-SG batt=2.7V Details on http://radiosondy.info
G3HRZU27502172022-12-06 09:55:4354.1355-3.327731613710142Clb=2.9m/s t=-53.8C h=12.6% p=-1.0hPa 405.101 MHz Type=RS41-SG ser=U2750217 Radiosonde
G3HRZU27502172022-12-06 09:55:1254.1383-3.329421633310032Clb=3.6m/s t=-54.3C h=15.2% p=-1.0hPa 405.101 MHz Type=RS41-SG ser=U2750217 Radiosonde
G4VFL-14U27502172022-12-06 09:54:4854.1405-3.33064156399951Clb=3.7m/s t=-54.9C h=21.7% 405.10MHz Type=RS41-SG Details on http://radiosondy.info
G3HRZU27502172022-12-06 09:54:4154.1412-3.33119153359923Clb=3.3m/s t=-54.9C h=18.3% p=-1.0hPa 405.101 MHz Type=RS41-SG ser=U2750217 Radiosonde
G4VFL-14U27502172022-12-06 09:54:3254.1418-3.33186149379895Clb=4.3m/s t=-54.7C h=22.0% 405.10MHz Type=RS41-SG Details on http://radiosondy.info
G4VFL-14U27502172022-12-06 09:54:1654.1431-3.33304149339835Clb=4.2m/s t=-54.3C h=20.7% 405.10MHz Type=RS41-SG batt=2.7V Details on http://radiosondy.info
G3HRZU27502172022-12-06 09:54:0954.1436-3.33361140339809Clb=4.4m/s t=-54.2C h=16.7% p=-1.0hPa 405.101 MHz Type=RS41-SG ser=U2750217 Radiosonde
G4VFL-14U27502172022-12-06 09:54:0054.1441-3.3344147319776Clb=3.4m/s t=-53.8C h=19.7% 405.10MHz Type=RS41-SG Details on http://radiosondy.info
G4VFL-14U27502172022-12-06 09:53:4454.1452-3.33555151309714Clb=3.6m/s t=-53.4C h=18.8% 405.10MHz Type=RS41-SG Details on http://radiosondy.info
G3HRZU27502172022-12-06 09:53:3854.1456-3.33608139289686Clb=4.0m/s t=-53.3C h=15.0% p=-1.0hPa 405.101 MHz Type=RS41-SG ser=U2750217 Radiosonde
G4VFL-14U27502172022-12-06 09:53:2854.1461-3.33673150319652Clb=3.6m/s t=-53.0C h=18.0% 405.10MHz Type=RS41-SG TxPastBurst=8h30m batt=2.7V Details on http://radiosondy.info
G4VFL-14U27502172022-12-06 09:53:1254.1472-3.33786149319590Clb=3.3m/s t=-52.4C h=17.8% 405.10MHz Type=RS41-SG Details on http://radiosondy.info
G3HRZU27502172022-12-06 09:53:0754.1475-3.33817152309570Clb=4.8m/s t=-52.4C h=14.5% p=-1.0hPa 405.101 MHz Type=RS41-SG ser=U2750217 Radiosonde
G4VFL-14U27502172022-12-06 09:52:5654.1483-3.33885153399526Clb=4.5m/s t=-52.0C h=18.3% 405.10MHz Type=RS41-SG Details on http://radiosondy.info
G3HRZU27502172022-12-06 09:52:3654.1501-3.34026159359437Clb=4.7m/s t=-51.5C h=15.9% p=-1.0hPa 405.101 MHz Type=RS41-SG ser=U2750217 Radiosonde
G3HRZU27502172022-12-06 09:52:0554.1527-3.3417165359322Clb=4.0m/s t=-51.1C h=16.6% p=-1.0hPa 405.101 MHz Type=RS41-SG ser=U2750217 Radiosonde
G3HRZU27502172022-12-06 09:51:3454.1554-3.34358156399206Clb=4.1m/s t=-50.4C h=17.1% p=-1.0hPa 405.101 MHz Type=RS41-SG ser=U2750217 Radiosonde
G4VFL-14U27502172022-12-06 09:51:3354.1555-3.34365155379203Clb=2.7m/s t=-50.3C h=20.0% 405.10MHz Type=RS41-SG batt=2.7V Details on http://radiosondy.info
G4VFL-14U27502172022-12-06 09:51:1854.1567-3.34479148359142Clb=4.0m/s t=-49.7C h=20.3% 405.10MHz Type=RS41-SG Details on http://radiosondy.info
G3HRZU27502172022-12-06 09:51:0354.1579-3.34598149379089Clb=2.9m/s t=-49.6C h=21.9% p=-1.0hPa 405.101 MHz Type=RS41-SG ser=U2750217 Radiosonde
G4VFL-14U27502172022-12-06 09:51:0254.158-3.34606150359085Clb=3.7m/s t=-49.7C h=25.7% 405.10MHz Type=RS41-SG Details on http://radiosondy.info
G4VFL-14U27502172022-12-06 09:50:4654.1591-3.34743145379029Clb=2.7m/s t=-49.9C h=30.4% 405.10MHz Type=RS41-SG batt=2.7V Details on http://radiosondy.info
G3HRZU27502172022-12-06 09:50:3254.1601-3.34886137378981Clb=3.8m/s t=-49.6C h=27.6% p=-1.0hPa 405.101 MHz Type=RS41-SG ser=U2750217 Radiosonde
G4VFL-14U27502172022-12-06 09:50:3054.1603-3.34907142358975Clb=2.3m/s t=-49.5C h=31.4% 405.10MHz Type=RS41-SG Details on http://radiosondy.info
G4VFL-14U27502172022-12-06 09:50:1454.1613-3.35067137318922Clb=2.9m/s t=-49.2C h=38.9% 405.10MHz Type=RS41-SG Details on http://radiosondy.info
G3HRZU27502172022-12-06 09:50:0154.1622-3.352131308872Clb=3.0m/s t=-49.0C h=37.6% p=-1.0hPa 405.101 MHz Type=RS41-SG ser=U2750217 Radiosonde
G4VFL-14U27502172022-12-06 09:49:5854.1623-3.35218131318866Clb=2.2m/s t=-48.8C h=41.2% 405.10MHz Type=RS41-SG TxPastBurst=8h30m batt=2.7V Details on http://radiosondy.info
G3HRZU27502172022-12-06 09:49:3054.1636-3.35504123288763Clb=3.6m/s t=-47.9C h=38.6% p=-1.0hPa 405.101 MHz Type=RS41-SG ser=U2750217 Radiosonde
G3HRZU27502172022-12-06 09:48:5954.1649-3.35846128308652Clb=3.5m/s t=-47.7C h=56.9% p=-1.0hPa 405.101 MHz Type=RS41-SG ser=U2750217 Radiosonde
G4VFL-14U27502172022-12-06 09:48:4754.1655-3.35975129318608Clb=3.5m/s t=-47.4C h=64.9% 405.10MHz Type=RS41-SG Details on http://radiosondy.info
G4VFL-14U27502172022-12-06 09:48:3254.1662-3.36135126338556Clb=2.6m/s t=-47.2C h=78.8% 405.10MHz Type=RS41-SG Details on http://radiosondy.info
G3HRZU27502172022-12-06 09:48:2854.1664-3.36181127318542Clb=4.3m/s t=-47.2C h=75.2% p=-1.0hPa 405.101 MHz Type=RS41-SG ser=U2750217 Radiosonde
G4VFL-14U27502172022-12-06 09:48:1754.167-3.36306132318502Clb=3.8m/s t=-46.8C h=81.3% 405.10MHz Type=RS41-SG batt=2.7V Details on http://radiosondy.info
G4VFL-14U27502172022-12-06 09:48:0154.1678-3.36462129318444Clb=4.0m/s t=-46.4C h=86.7% 405.10MHz Type=RS41-SG Details on http://radiosondy.info
G3HRZU27502172022-12-06 09:47:5754.168-3.36512132318424Clb=3.3m/s t=-46.3C h=84.2% p=-1.0hPa 405.101 MHz Type=RS41-SG ser=U2750217 Radiosonde
G4VFL-14U27502172022-12-06 09:47:4554.1686-3.36615140338380Clb=3.8m/s t=-46.0C h=87.0% 405.10MHz Type=RS41-SG Details on http://radiosondy.info
G4VFL-14U27502172022-12-06 09:47:2954.1696-3.36765144318318Clb=4.3m/s t=-45.5C h=78.0% 405.10MHz Type=RS41-SG batt=2.7V Details on http://radiosondy.info
G3HRZU27502172022-12-06 09:47:2654.1701-3.3683142308284Clb=3.4m/s t=-45.5C h=78.9% p=-1.0hPa 405.101 MHz Type=RS41-SG ser=U2750217 Radiosonde
G4VFL-14U27502172022-12-06 09:47:1354.1706-3.36895146308251Clb=6.1m/s t=-45.2C h=81.7% 405.10MHz Type=RS41-SG Details on http://radiosondy.info
G4VFL-14U27502172022-12-06 09:46:5754.1716-3.37017146308183Clb=3.9m/s t=-44.6C h=88.5% 405.10MHz Type=RS41-SG Details on http://radiosondy.info
G3HRZU27502172022-12-06 09:46:5554.1717-3.3704139288171Clb=2.6m/s t=-44.5C h=84.9% p=-1.0hPa 405.101 MHz Type=RS41-SG ser=U2750217 Radiosonde
G3HRZU27502172022-12-06 09:46:2454.1735-3.37292141308047Clb=3.7m/s t=-43.8C h=88.7% p=-1.0hPa 405.101 MHz Type=RS41-SG ser=U2750217 Radiosonde
G3HRZU27502172022-12-06 09:45:5354.1751-3.37563136287913Clb=3.6m/s t=-42.6C h=78.0% p=-1.0hPa 405.101 MHz Type=RS41-SG ser=U2750217 Radiosonde
G4VFL-14U27502172022-12-06 09:45:3554.176-3.37696139307847Clb=4.8m/s t=-42.1C h=76.2% 405.10MHz Type=RS41-SG TxPastBurst=8h30m batt=2.7V Details on http://radiosondy.info
G3HRZU27502172022-12-06 09:45:2254.1768-3.37801147307787Clb=4.0m/s t=-41.7C h=65.2% p=-1.0hPa 405.101 MHz Type=RS41-SG ser=U2750217 Radiosonde
G4VFL-14U27502172022-12-06 09:45:1954.1769-3.37815145317778Clb=3.7m/s t=-41.6C h=69.0% 405.10MHz Type=RS41-SG Details on http://radiosondy.info
G4VFL-14U27502172022-12-06 09:45:0454.1779-3.37928149287714Clb=3.8m/s t=-41.2C h=64.5% 405.10MHz Type=RS41-SG Details on http://radiosondy.info
G3HRZU27502172022-12-06 09:44:5154.1787-3.38032139287653Clb=5.1m/s t=-40.9C h=58.8% p=-1.0hPa 405.101 MHz Type=RS41-SG ser=U2750217 Radiosonde
G4VFL-14U27502172022-12-06 09:44:4654.1789-3.38062137247633Clb=3.9m/s t=-40.6C h=62.8% 405.10MHz Type=RS41-SG batt=2.7V Details on http://radiosondy.info
G4VFL-14U27502172022-12-06 09:44:3054.1796-3.38168139247571Clb=3.1m/s t=-40.1C h=66.2% 405.10MHz Type=RS41-SG Details on http://radiosondy.info
G3HRZU27502172022-12-06 09:44:2054.1801-3.38248134227527Clb=3.2m/s t=-39.8C h=62.3% p=-1.0hPa 405.101 MHz Type=RS41-SG ser=U2750217 Radiosonde
G4VFL-14U27502172022-12-06 09:44:1454.1803-3.38283139227508Clb=4.2m/s t=-39.6C h=65.4% 405.10MHz Type=RS41-SG Details on http://radiosondy.info
G4VFL-14U27502172022-12-06 09:43:5954.181-3.38375139227451Clb=3.7m/s t=-39.4C h=64.2% 405.10MHz Type=RS41-SG batt=2.7V Details on http://radiosondy.info
G3HRZU27502172022-12-06 09:43:4854.1814-3.38448139227412Clb=4.2m/s t=-39.1C h=60.0% p=-1.0hPa 405.101 MHz Type=RS41-SG ser=U2750217 Radiosonde
G3HRZU27502172022-12-06 09:43:1754.1831-3.38692140307276Clb=5.0m/s t=-38.1C h=45.4% p=-1.0hPa 405.101 MHz Type=RS41-SG ser=U2750217 Radiosonde
G3HRZU27502172022-12-06 09:42:4654.1847-3.38941140307135Clb=4.0m/s t=-36.7C h=41.3% p=-1.0hPa 405.101 MHz Type=RS41-SG ser=U2750217 Radiosonde
G4VFL-14U27502172022-12-06 09:42:4454.1848-3.38957139267127Clb=4.1m/s t=-36.6C h=42.4% 405.10MHz Type=RS41-SG Details on http://radiosondy.info
G4VFL-14U27502172022-12-06 09:42:2954.1856-3.39071137247067Clb=4.4m/s t=-36.0C h=37.8% 405.10MHz Type=RS41-SG Details on http://radiosondy.info
G3HRZU27502172022-12-06 09:42:1554.1861-3.39189131247001Clb=3.8m/s t=-35.5C h=25.3% p=-1.0hPa 405.101 MHz Type=RS41-SG ser=U2750217 Radiosonde
G4VFL-14U27502172022-12-06 09:42:1354.1862-3.39206124246994Clb=2.9m/s t=-35.4C h=26.9% 405.10MHz Type=RS41-SG TxPastBurst=8h30m batt=2.9V Details on http://radiosondy.info
G4VFL-14U27502172022-12-06 09:41:5754.1867-3.39338129246939Clb=2.9m/s t=-35.0C h=20.8% 405.10MHz Type=RS41-SG Details on http://radiosondy.info
G3HRZU27502172022-12-06 09:41:4454.1872-3.39443128246892Clb=4.4m/s t=-34.6C h=16.6% p=-1.0hPa 405.101 MHz Type=RS41-SG ser=U2750217 Radiosonde
G4VFL-14U27502172022-12-06 09:41:4254.1873-3.3946127226885Clb=4.0m/s t=-34.5C h=17.8% 405.10MHz Type=RS41-SG Details on http://radiosondy.info
G4VFL-14U27502172022-12-06 09:41:2754.1878-3.39577122266831Clb=4.0m/s t=-34.3C h=19.0% 405.10MHz Type=RS41-SG batt=2.9V Details on http://radiosondy.info
G3HRZU27502172022-12-06 09:41:1354.1884-3.39687138266778Clb=2.5m/s t=-33.9C h=20.0% p=-1.0hPa 405.101 MHz Type=RS41-SG ser=U2750217 Radiosonde
G4VFL-14U27502172022-12-06 09:41:1254.1885-3.39695137306775Clb=4.0m/s t=-33.8C h=21.3% 405.10MHz Type=RS41-SG Details on http://radiosondy.info
G4VFL-14U27502172022-12-06 09:40:5754.1893-3.39813138286724Clb=2.9m/s t=-33.3C h=24.6% 405.10MHz Type=RS41-SG Details on http://radiosondy.info
G3HRZU27502172022-12-06 09:40:4254.1902-3.3994141306672Clb=2.8m/s t=-33.0C h=31.0% p=-1.0hPa 405.101 MHz Type=RS41-SG ser=U2750217 Radiosonde
G3HRZU27502172022-12-06 09:40:1154.192-3.40195139336576Clb=2.4m/s t=-32.2C h=16.4% p=-1.0hPa 405.101 MHz Type=RS41-SG ser=U2750217 Radiosonde
G4VFL-14U27502172022-12-06 09:39:4854.1937-3.40396152376503Clb=3.3m/s t=-31.7C h=15.9% 405.10MHz Type=RS41-SG batt=2.9V Details on http://radiosondy.info
G3HRZU27502172022-12-06 09:39:4054.1944-3.40465150376474Clb=3.9m/s t=-31.5C h=15.0% p=-1.0hPa 405.101 MHz Type=RS41-SG ser=U2750217 Radiosonde
G4VFL-14U27502172022-12-06 09:39:3254.195-3.40518155396451Clb=4.1m/s t=-31.4C h=17.7% 405.10MHz Type=RS41-SG Details on http://radiosondy.info
G4VFL-14U27502172022-12-06 09:39:1654.1964-3.40639153416401Clb=2.9m/s t=-31.2C h=22.8% 405.10MHz Type=RS41-SG Details on http://radiosondy.info
G3HRZU27502172022-12-06 09:39:0954.1971-3.4069153396379Clb=3.6m/s t=-31.1C h=22.6% p=-1.0hPa 405.101 MHz Type=RS41-SG ser=U2750217 Radiosonde
G4VFL-14U27502172022-12-06 09:39:0154.1978-3.4075158416356Clb=3.2m/s t=-31.0C h=25.4% 405.10MHz Type=RS41-SG TxPastBurst=8h30m batt=2.9V Details on http://radiosondy.info
G4VFL-14U27502172022-12-06 09:38:4654.1992-3.40841161416305Clb=3.3m/s t=-30.6C h=27.9% 405.10MHz Type=RS41-SG Details on http://radiosondy.info
G3HRZU27502172022-12-06 09:38:3854.2002-3.40901162416271Clb=4.7m/s t=-30.5C h=27.6% p=-1.0hPa 405.101 MHz Type=RS41-SG ser=U2750217 Radiosonde
G4VFL-14U27502172022-12-06 09:38:3154.2006-3.40925168436253Clb=3.1m/s t=-30.4C h=30.5% 405.10MHz Type=RS41-SG Details on http://radiosondy.info
G4VFL-14U27502172022-12-06 09:38:1454.2024-3.41014164416192Clb=3.0m/s t=-30.0C h=31.4% 405.10MHz Type=RS41-SG batt=2.9V Details on http://radiosondy.info
G3HRZU27502172022-12-06 09:38:0754.2032-3.41057163436161Clb=4.1m/s t=-29.9C h=30.7% p=-1.0hPa 405.101 MHz Type=RS41-SG ser=U2750217 Radiosonde
G4VFL-14U27502172022-12-06 09:37:5754.204-3.41107158416122Clb=4.2m/s t=-29.5C h=31.7% 405.10MHz Type=RS41-SG Details on http://radiosondy.info
G3HRZU27502172022-12-06 09:37:3654.2061-3.41239161396041Clb=3.8m/s t=-29.0C h=35.3% p=-1.0hPa 405.101 MHz Type=RS41-SG ser=U2750217 Radiosonde
G3HRZU27502172022-12-06 09:37:0554.2091-3.41409164415916Clb=4.4m/s t=-28.0C h=32.3% p=-1.0hPa 405.101 MHz Type=RS41-SG ser=U2750217 Radiosonde
G4VFL-14U27502172022-12-06 09:36:4754.2107-3.41493164375846Clb=4.1m/s t=-27.3C h=31.6% 405.10MHz Type=RS41-SG Details on http://radiosondy.info
G3HRZU27502172022-12-06 09:36:3454.2119-3.41567162395786Clb=4.1m/s t=-26.9C h=33.7% p=-1.0hPa 405.101 MHz Type=RS41-SG ser=U2750217 Radiosonde
G4VFL-14U27502172022-12-06 09:36:3154.2121-3.41577163415778Clb=4.2m/s t=-26.8C h=35.7% 405.10MHz Type=RS41-SG batt=2.9V Details on http://radiosondy.info
G4VFL-14U27502172022-12-06 09:36:1654.2135-3.41656166415716Clb=4.8m/s t=-26.3C h=34.3% 405.10MHz Type=RS41-SG Details on http://radiosondy.info
G3HRZU27502172022-12-06 09:36:0354.2149-3.41723162415661Clb=4.3m/s t=-25.8C h=33.0% p=-1.0hPa 405.101 MHz Type=RS41-SG ser=U2750217 Radiosonde
G4VFL-14U27502172022-12-06 09:36:0154.215-3.41728164415657Clb=4.5m/s t=-25.7C h=33.9% 405.10MHz Type=RS41-SG Details on http://radiosondy.info
G4VFL-14U27502172022-12-06 09:35:4554.2165-3.41799165415595Clb=4.6m/s t=-25.2C h=33.0% 405.10MHz Type=RS41-SG TxPastBurst=8h30m batt=2.9V Details on http://radiosondy.info
G3HRZU27502172022-12-06 09:35:3254.2179-3.41872160395539Clb=4.2m/s t=-24.9C h=33.9% p=-1.0hPa 405.101 MHz Type=RS41-SG ser=U2750217 Radiosonde
G4VFL-14U27502172022-12-06 09:35:2954.2181-3.41883161375531Clb=4.6m/s t=-24.7C h=34.7% 405.10MHz Type=RS41-SG Details on http://radiosondy.info
G4VFL-14U27502172022-12-06 09:35:1454.2194-3.41963158355472Clb=4.3m/s t=-24.2C h=34.7% 405.10MHz Type=RS41-SG Details on http://radiosondy.info
G3HRZU27502172022-12-06 09:35:0154.2206-3.42034161335422Clb=4.5m/s t=-23.8C h=33.7% p=-1.0hPa 405.101 MHz Type=RS41-SG ser=U2750217 Radiosonde
G4VFL-14U27502172022-12-06 09:34:5754.2208-3.4205159335412Clb=4.0m/s t=-23.7C h=34.5% 405.10MHz Type=RS41-SG batt=2.9V Details on http://radiosondy.info
G3HRZU27502172022-12-06 09:34:2954.2231-3.42184164335306Clb=4.5m/s t=-22.9C h=34.8% p=-1.0hPa 405.101 MHz Type=RS41-SG ser=U2750217 Radiosonde
G3HRZU27502172022-12-06 09:33:5854.2253-3.42321159315195Clb=4.0m/s t=-22.2C h=21.0% p=-1.0hPa 405.101 MHz Type=RS41-SG ser=U2750217 Radiosonde
G4VFL-14U27502172022-12-06 09:33:4554.2262-3.42383159305152Clb=3.1m/s t=-21.8C h=23.9% 405.10MHz Type=RS41-SG Details on http://radiosondy.info
G4VFL-14U27502172022-12-06 09:33:3054.2272-3.42451156285100Clb=3.0m/s t=-21.4C h=24.6% 405.10MHz Type=RS41-SG Details on http://radiosondy.info
G3HRZU27502172022-12-06 09:33:2754.2274-3.42464156265090Clb=4.3m/s t=-21.4C h=24.9% p=-1.0hPa 405.101 MHz Type=RS41-SG ser=U2750217 Radiosonde
G4VFL-14U27502172022-12-06 09:33:1454.2283-3.4252162305046Clb=3.1m/s t=-20.9C h=28.9% 405.10MHz Type=RS41-SG batt=2.9V Details on http://radiosondy.info
G4VFL-14U27502172022-12-06 09:32:5954.2294-3.42578165304994Clb=2.6m/s t=-20.5C h=24.3% 405.10MHz Type=RS41-SG Details on http://radiosondy.info
G3HRZU27502172022-12-06 09:32:5654.2296-3.42589167304984Clb=4.5m/s t=-20.5C h=19.9% p=-1.0hPa 405.101 MHz Type=RS41-SG ser=U2750217 Radiosonde
G4VFL-14U27502172022-12-06 09:32:4454.2304-3.42636163264943Clb=3.9m/s t=-20.0C h=15.5% 405.10MHz Type=RS41-SG Details on http://radiosondy.info
G4VFL-14U27502172022-12-06 09:32:2854.2314-3.42704164304886Clb=4.1m/s t=-19.6C h=6.7% 405.10MHz Type=RS41-SG TxPastBurst=8h30m batt=2.9V Details on http://radiosondy.info
G3HRZU27502172022-12-06 09:32:2554.2316-3.42716159284875Clb=3.1m/s t=-19.6C h=6.6% p=-1.0hPa 405.101 MHz Type=RS41-SG ser=U2750217 Radiosonde
G4VFL-14U27502172022-12-06 09:32:1254.2326-3.42776162334833Clb=3.3m/s t=-19.6C h=4.8% 405.10MHz Type=RS41-SG Details on http://radiosondy.info
G4VFL-14U27502172022-12-06 09:31:5654.2338-3.42862160374778Clb=3.9m/s t=-19.5C h=24.7% 405.10MHz Type=RS41-SG Details on http://radiosondy.info
G3HRZU27502172022-12-06 09:31:5454.234-3.42873161374771Clb=3.2m/s t=-19.6C h=26.8% p=-1.0hPa 405.101 MHz Type=RS41-SG ser=U2750217 Radiosonde
G3HRZU27502172022-12-06 09:31:2354.2366-3.42974176334671Clb=3.3m/s t=-19.1C h=38.0% p=-1.0hPa 405.101 MHz Type=RS41-SG ser=U2750217 Radiosonde
G3HRZU27502172022-12-06 09:30:5254.2394-3.43034171374567Clb=4.1m/s t=-18.5C h=33.4% p=-1.0hPa 405.101 MHz Type=RS41-SG ser=U2750217 Radiosonde
G4VFL-14U27502172022-12-06 09:30:4854.2398-3.43041175414554Clb=4.2m/s t=-18.4C h=33.9% 405.10MHz Type=RS41-SG batt=2.9V Details on http://radiosondy.info
G4VFL-14U27502172022-12-06 09:30:3254.2414-3.43074175434498Clb=3.3m/s t=-18.1C h=24.9% 405.10MHz Type=RS41-SG Details on http://radiosondy.info
G3HRZU27502172022-12-06 09:30:2154.2426-3.43101172444459Clb=4.2m/s t=-17.8C h=17.2% p=-1.0hPa 405.101 MHz Type=RS41-SG ser=U2750217 Radiosonde
G4VFL-14U27502172022-12-06 09:30:1654.2431-3.43112174414440Clb=3.3m/s t=-17.6C h=16.2% 405.10MHz Type=RS41-SG Details on http://radiosondy.info
G4VFL-14U27502172022-12-06 09:30:0054.2447-3.43149169394375Clb=3.1m/s t=-17.4C h=14.9% 405.10MHz Type=RS41-SG batt=2.9V Details on http://radiosondy.info
G3HRZU27502172022-12-06 09:29:5054.2457-3.43173172354340Clb=4.3m/s t=-17.2C h=20.1% p=-1.0hPa 405.101 MHz Type=RS41-SG ser=U2750217 Radiosonde
G4VFL-14U27502172022-12-06 09:29:4354.2463-3.43186174394314Clb=4.2m/s t=-17.0C h=21.1% 405.10MHz Type=RS41-SG Details on http://radiosondy.info
G4VFL-14U27502172022-12-06 09:29:2854.2477-3.43213177354260Clb=4.0m/s t=-16.7C h=29.9% 405.10MHz Type=RS41-SG Details on http://radiosondy.info
G3HRZU27502172022-12-06 09:29:1954.2486-3.43218176334225Clb=3.2m/s t=-16.5C h=33.2% p=-1.0hPa 405.101 MHz Type=RS41-SG ser=U2750217 Radiosonde
G4VFL-14U27502172022-12-06 09:29:1354.2491-3.43224177374204Clb=4.1m/s t=-16.4C h=40.9% 405.10MHz Type=RS41-SG TxPastBurst=8h30m batt=2.9V Details on http://radiosondy.info
G4VFL-14U27502172022-12-06 09:28:5754.2506-3.43228176374147Clb=4.4m/s t=-16.0C h=34.5% 405.10MHz Type=RS41-SG Details on http://radiosondy.info
G3HRZU27502172022-12-06 09:28:4854.2515-3.43236178374107Clb=4.7m/s t=-15.9C h=35.6% p=-1.0hPa 405.101 MHz Type=RS41-SG ser=U2750217 Radiosonde
G3HRZU27502172022-12-06 09:28:1754.2544-3.43223181373995Clb=3.4m/s t=-15.1C h=27.8% p=-1.0hPa 405.101 MHz Type=RS41-SG ser=U2750217 Radiosonde
G3HRZU27502172022-12-06 09:27:4654.2572-3.43197176353870Clb=4.1m/s t=-13.9C h=22.8% p=-1.0hPa 405.101 MHz Type=RS41-SG ser=U2750217 Radiosonde
G4VFL-14U27502172022-12-06 09:27:3454.2582-3.43195186333823Clb=3.6m/s t=-13.5C h=22.2% 405.10MHz Type=RS41-SG Details on http://radiosondy.info
G4VFL-14U27502172022-12-06 09:27:1854.2595-3.43184184353765Clb=3.4m/s t=-13.0C h=23.8% 405.10MHz Type=RS41-SG batt=2.9V Details on http://radiosondy.info
G3HRZU27502172022-12-06 09:27:1554.2599-3.4318185313751Clb=3.4m/s t=-12.9C h=-1.0% p=-1.0hPa 405.101 MHz Type=RS41-SG ser=U2750217 Radiosonde
G4VFL-14U27502172022-12-06 09:27:0254.2609-3.43166185333704Clb=2.8m/s t=-12.5C h=23.8% 405.10MHz Type=RS41-SG Details on http://radiosondy.info
G4VFL-14U27502172022-12-06 09:26:4754.2622-3.43142189333649Clb=3.5m/s t=-12.1C h=22.6% 405.10MHz Type=RS41-SG Details on http://radiosondy.info
G3HRZU27502172022-12-06 09:26:4454.2625-3.43135185313634Clb=4.3m/s t=-273.0C h=-1.0% p=-1.0hPa 405.101 MHz Type=RS41 ser=U2750217 Radiosonde
G4VFL-14U27502172022-12-06 09:26:3254.2634-3.43114189313594Clb=3.2m/s t=-11.7C h=17.7% 405.10MHz Type=RS41-SG batt=2.9V Details on http://radiosondy.info
G4VFL-14U27502172022-12-06 09:26:1654.2646-3.43086190333535Clb=3.8m/s t=-11.2C h=16.8% 405.10MHz Type=RS41-SG Details on http://radiosondy.info
G4VFL-14U27502172022-12-06 09:26:0054.2659-3.43048186353477Clb=4.7m/s t=-10.9C h=15.6% 405.10MHz Type=RS41-SG Details on http://radiosondy.info
G4VFL-14U27502172022-12-06 09:24:3454.273-3.42897187353149Clb=4.5m/s t=-8.9C h=4.3% 405.10MHz Type=RS41-SG TxPastBurst=8h30m batt=2.9V Details on http://radiosondy.info
G4VFL-14U27502172022-12-06 09:24:1754.2745-3.42859192353084Clb=3.2m/s t=-8.6C h=2.1% 405.10MHz Type=RS41-SG Details on http://radiosondy.info
G4VFL-14U27502172022-12-06 09:24:0154.2759-3.4281192353027Clb=3.2m/s t=-8.4C h=1.6% 405.10MHz Type=RS41-SG Details on http://radiosondy.info
G4VFL-14U27502172022-12-06 09:23:4554.2773-3.42794182312971Clb=4.4m/s t=-8.4C h=2.8% 405.10MHz Type=RS41-SG batt=2.9V Details on http://radiosondy.info
G4VFL-14U27502172022-12-06 09:23:3054.2785-3.42797171282912Clb=2.2m/s t=-8.5C h=8.5% 405.10MHz Type=RS41-SG Details on http://radiosondy.info
G4VFL-14U27502172022-12-06 09:23:1554.2795-3.42824169282861Clb=2.7m/s t=-8.8C h=15.5% 405.10MHz Type=RS41-SG Details on http://radiosondy.info
G4VFL-14U27502172022-12-06 09:22:5954.2806-3.42852174332804Clb=2.1m/s t=-8.6C h=16.4% 405.10MHz Type=RS41-SG batt=2.9V Details on http://radiosondy.info
G4VFL-14U27502172022-12-06 09:21:4754.2864-3.43002183352570Clb=2.5m/s t=-6.9C h=15.2% 405.10MHz Type=RS41-SG Details on http://radiosondy.info
G4VFL-14U27502172022-12-06 09:21:3154.2877-3.43024179282515Clb=3.0m/s t=-6.7C h=15.2% 405.10MHz Type=RS41-SG Details on http://radiosondy.info
G4VFL-14U27502172022-12-06 09:21:1654.2888-3.43026185302463Clb=4.1m/s t=-6.3C h=15.9% 405.10MHz Type=RS41-SG TxPastBurst=8h30m batt=2.9V Details on http://radiosondy.info
G4VFL-14U27502172022-12-06 09:21:0054.2899-3.43032181282409Clb=3.2m/s t=-6.0C h=15.2% 405.10MHz Type=RS41-SG Details on http://radiosondy.info
G4VFL-14U27502172022-12-06 09:20:4454.291-3.43032206262342Clb=3.4m/s t=-5.6C h=11.5% calibration 96% 405.10MHz Type=RS41-SG Details on http://radiosondy.info
G4VFL-14U27502172022-12-06 09:20:2854.292-3.42999182282262Clb=3.2m/s t=-5.3C h=13.3% calibration 94% 405.10MHz Type=RS41-SG batt=2.9V Details on http://radiosondy.info
G4VFL-14U27502172022-12-06 09:20:1254.2931-3.42983192282207Clb=4.4m/s t=-4.9C h=8.8% calibration 92% Type=RS41-SG Details on http://radiosondy.info
G4VFL-14U27502172022-12-06 09:19:5754.2941-3.42946180262148Clb=3.9m/s t=-4.6C h=16.1% calibration 88% Type=RS41-SG Details on http://radiosondy.info
G4VFL-14U27502172022-12-06 09:18:4454.2982-3.42808192261842Clb=7.4m/s calibration 82% Type=RS41-SG batt=2.9V Details on http://radiosondy.info
G4VFL-14U27502172022-12-06 09:18:2954.2991-3.42795196281772Clb=3.6m/s calibration 76% Type=RS41-SG Details on http://radiosondy.info
G4VFL-14U27502172022-12-06 09:18:1454.3-3.42701200261709Clb=6.4m/s calibration 74% Type=RS41-SG Details on http://radiosondy.info
G4VFL-14U27502172022-12-06 09:17:5954.301-3.42677196221646Clb=3.3m/s calibration 64% Type=RS41-SG batt=2.9V Details on http://radiosondy.info
G4VFL-14U27502172022-12-06 09:17:4454.3018-3.42661188221585Clb=4.7m/s calibration 60% Type=RS41-SG Details on http://radiosondy.info
G4VFL-14U27502172022-12-06 09:17:2754.3027-3.42653178221512Clb=4.0m/s calibration 52% Type=RS41-SG Details on http://radiosondy.info
G4VFL-14U27502172022-12-06 09:17:1154.3034-3.42592217191441Clb=5.9m/s calibration 52% Type=RS41-SG batt=2.9V Details on http://radiosondy.info
G4VFL-14U27502172022-12-06 09:16:5654.304-3.42517232391370Clb=4.1m/s calibration 52% Type=RS41-SG Details on http://radiosondy.info
G4VFL-14U27502172022-12-06 09:15:4154.3094-3.4204320244936Clb=6.7m/s calibration 49% Type=RS41-SG Details on http://radiosondy.info
G4VFL-14U27502172022-12-06 09:15:2554.3109-3.4190621037834Clb=4.7m/s calibration 49% Type=RS41-SG batt=2.9V Details on http://radiosondy.info
G4VFL-14U27502172022-12-06 09:15:0954.3123-3.4179320141731Clb=5.2m/s calibration 41% Type=RS41-SG Details on http://radiosondy.info
G4VFL-14U27502172022-12-06 09:14:5454.3136-3.4167721539656Clb=5.7m/s calibration 27% Type=RS41-SG Details on http://radiosondy.info
G4VFL-14U27502172022-12-06 09:14:3654.3149-3.4151123335573Clb=4.2m/s calibration 9% Type=RS41 batt=2.9V Details on http://radiosondy.info